<?xml version="1.0" encoding="UTF-8" standalone="no" ?>
<gpx xmlns="http://www.topografix.com/GPX/1/1" xmlns:xsi="http://www.w3.org/2001/XMLSchema-instance" xsi:schemaLocation="http://www.topografix.com/GPX/1/1 http://www.topografix.com/GPX/1/1/gpx.xsd" version="1.1" creator="VisuGPX - https://www.visugpx.com">
  <metadata>
    <name>VTT Jouques</name>
    <desc><![CDATA[Aucune difficulté]]></desc>
  </metadata>
  <trk>
    <name><![CDATA[Untitled]]></name>
    <trkseg>
      <trkpt lat="43.63694" lon="5.638">
        <ele>270.79998779297</ele>
        <time>2012-12-29T08:38:11.000Z</time>
      </trkpt>
      <trkpt lat="43.63706" lon="5.63858">
        <ele>272.20001220703</ele>
        <time>2012-12-29T08:40:35.000Z</time>
      </trkpt>
      <trkpt lat="43.63716" lon="5.63923">
        <ele>273</ele>
        <time>2012-12-29T08:40:51.000Z</time>
      </trkpt>
      <trkpt lat="43.63721" lon="5.63989">
        <ele>273.79998779297</ele>
        <time>2012-12-29T08:41:06.000Z</time>
      </trkpt>
      <trkpt lat="43.63686" lon="5.64011">
        <ele>268.79998779297</ele>
        <time>2012-12-29T08:41:22.000Z</time>
      </trkpt>
      <trkpt lat="43.63639" lon="5.64012">
        <ele>265.79998779297</ele>
        <time>2012-12-29T08:41:35.000Z</time>
      </trkpt>
      <trkpt lat="43.6359" lon="5.64011">
        <ele>265.60000610352</ele>
        <time>2012-12-29T08:41:47.000Z</time>
      </trkpt>
      <trkpt lat="43.63548" lon="5.64013">
        <ele>267.79998779297</ele>
        <time>2012-12-29T08:41:59.000Z</time>
      </trkpt>
      <trkpt lat="43.6353" lon="5.64076">
        <ele>267.79998779297</ele>
        <time>2012-12-29T08:42:12.000Z</time>
      </trkpt>
      <trkpt lat="43.63497" lon="5.64125">
        <ele>267.79998779297</ele>
        <time>2012-12-29T08:42:24.000Z</time>
      </trkpt>
      <trkpt lat="43.63455" lon="5.64159">
        <ele>267</ele>
        <time>2012-12-29T08:42:36.000Z</time>
      </trkpt>
      <trkpt lat="43.63411" lon="5.64184">
        <ele>267</ele>
        <time>2012-12-29T08:42:47.000Z</time>
      </trkpt>
      <trkpt lat="43.63369" lon="5.64213">
        <ele>267.79998779297</ele>
        <time>2012-12-29T08:42:58.000Z</time>
      </trkpt>
      <trkpt lat="43.63331" lon="5.64253">
        <ele>265</ele>
        <time>2012-12-29T08:43:09.000Z</time>
      </trkpt>
      <trkpt lat="43.633" lon="5.643">
        <ele>266.79998779297</ele>
        <time>2012-12-29T08:43:20.000Z</time>
      </trkpt>
      <trkpt lat="43.63279" lon="5.64354">
        <ele>267.20001220703</ele>
        <time>2012-12-29T08:43:31.000Z</time>
      </trkpt>
      <trkpt lat="43.63259" lon="5.64414">
        <ele>267.39999389648</ele>
        <time>2012-12-29T08:43:44.000Z</time>
      </trkpt>
      <trkpt lat="43.63241" lon="5.64473">
        <ele>267.60000610352</ele>
        <time>2012-12-29T08:43:56.000Z</time>
      </trkpt>
      <trkpt lat="43.6322" lon="5.64534">
        <ele>268.20001220703</ele>
        <time>2012-12-29T08:44:08.000Z</time>
      </trkpt>
      <trkpt lat="43.63201" lon="5.64591">
        <ele>270</ele>
        <time>2012-12-29T08:44:19.000Z</time>
      </trkpt>
      <trkpt lat="43.63185" lon="5.64647">
        <ele>272.20001220703</ele>
        <time>2012-12-29T08:44:30.000Z</time>
      </trkpt>
      <trkpt lat="43.63166" lon="5.64706">
        <ele>271.60000610352</ele>
        <time>2012-12-29T08:44:41.000Z</time>
      </trkpt>
      <trkpt lat="43.63145" lon="5.64768">
        <ele>271.20001220703</ele>
        <time>2012-12-29T08:44:52.000Z</time>
      </trkpt>
      <trkpt lat="43.63125" lon="5.6483">
        <ele>269.20001220703</ele>
        <time>2012-12-29T08:45:03.000Z</time>
      </trkpt>
      <trkpt lat="43.63104" lon="5.64892">
        <ele>269.60000610352</ele>
        <time>2012-12-29T08:45:14.000Z</time>
      </trkpt>
      <trkpt lat="43.63083" lon="5.64953">
        <ele>269</ele>
        <time>2012-12-29T08:45:25.000Z</time>
      </trkpt>
      <trkpt lat="43.63061" lon="5.6501">
        <ele>269.20001220703</ele>
        <time>2012-12-29T08:45:36.000Z</time>
      </trkpt>
      <trkpt lat="43.63036" lon="5.65068">
        <ele>271.39999389648</ele>
        <time>2012-12-29T08:45:48.000Z</time>
      </trkpt>
      <trkpt lat="43.63015" lon="5.65123">
        <ele>275</ele>
        <time>2012-12-29T08:46:00.000Z</time>
      </trkpt>
      <trkpt lat="43.62994" lon="5.6518">
        <ele>278</ele>
        <time>2012-12-29T08:46:12.000Z</time>
      </trkpt>
      <trkpt lat="43.6297" lon="5.65236">
        <ele>276.60000610352</ele>
        <time>2012-12-29T08:46:23.000Z</time>
      </trkpt>
      <trkpt lat="43.62944" lon="5.65289">
        <ele>274.79998779297</ele>
        <time>2012-12-29T08:46:33.000Z</time>
      </trkpt>
      <trkpt lat="43.62917" lon="5.65344">
        <ele>272</ele>
        <time>2012-12-29T08:46:43.000Z</time>
      </trkpt>
      <trkpt lat="43.6289" lon="5.65398">
        <ele>274</ele>
        <time>2012-12-29T08:46:53.000Z</time>
      </trkpt>
      <trkpt lat="43.62868" lon="5.65458">
        <ele>273.79998779297</ele>
        <time>2012-12-29T08:47:03.000Z</time>
      </trkpt>
      <trkpt lat="43.6285" lon="5.65519">
        <ele>273.79998779297</ele>
        <time>2012-12-29T08:47:13.000Z</time>
      </trkpt>
      <trkpt lat="43.62833" lon="5.65582">
        <ele>274.79998779297</ele>
        <time>2012-12-29T08:47:23.000Z</time>
      </trkpt>
      <trkpt lat="43.62816" lon="5.65643">
        <ele>276</ele>
        <time>2012-12-29T08:47:33.000Z</time>
      </trkpt>
      <trkpt lat="43.62799" lon="5.65706">
        <ele>276.39999389648</ele>
        <time>2012-12-29T08:47:43.000Z</time>
      </trkpt>
      <trkpt lat="43.62783" lon="5.65766">
        <ele>277</ele>
        <time>2012-12-29T08:47:53.000Z</time>
      </trkpt>
      <trkpt lat="43.6276" lon="5.65825">
        <ele>277.39999389648</ele>
        <time>2012-12-29T08:48:03.000Z</time>
      </trkpt>
      <trkpt lat="43.62737" lon="5.65884">
        <ele>278.60000610352</ele>
        <time>2012-12-29T08:48:13.000Z</time>
      </trkpt>
      <trkpt lat="43.62715" lon="5.6594">
        <ele>278.20001220703</ele>
        <time>2012-12-29T08:48:23.000Z</time>
      </trkpt>
      <trkpt lat="43.62692" lon="5.66001">
        <ele>277.20001220703</ele>
        <time>2012-12-29T08:48:34.000Z</time>
      </trkpt>
      <trkpt lat="43.62669" lon="5.6606">
        <ele>276.60000610352</ele>
        <time>2012-12-29T08:48:46.000Z</time>
      </trkpt>
      <trkpt lat="43.62635" lon="5.66102">
        <ele>279</ele>
        <time>2012-12-29T08:48:59.000Z</time>
      </trkpt>
      <trkpt lat="43.62594" lon="5.66074">
        <ele>280.79998779297</ele>
        <time>2012-12-29T08:49:14.000Z</time>
      </trkpt>
      <trkpt lat="43.62546" lon="5.66057">
        <ele>283.39999389648</ele>
        <time>2012-12-29T08:49:26.000Z</time>
      </trkpt>
      <trkpt lat="43.6251" lon="5.66017">
        <ele>282.79998779297</ele>
        <time>2012-12-29T08:49:37.000Z</time>
      </trkpt>
      <trkpt lat="43.62466" lon="5.65995">
        <ele>284.39999389648</ele>
        <time>2012-12-29T08:49:48.000Z</time>
      </trkpt>
      <trkpt lat="43.62419" lon="5.65985">
        <ele>287.20001220703</ele>
        <time>2012-12-29T08:49:58.000Z</time>
      </trkpt>
      <trkpt lat="43.62371" lon="5.6598">
        <ele>287.20001220703</ele>
        <time>2012-12-29T08:50:09.000Z</time>
      </trkpt>
      <trkpt lat="43.62326" lon="5.65986">
        <ele>288</ele>
        <time>2012-12-29T08:50:22.000Z</time>
      </trkpt>
      <trkpt lat="43.62283" lon="5.66001">
        <ele>288.39999389648</ele>
        <time>2012-12-29T08:50:35.000Z</time>
      </trkpt>
      <trkpt lat="43.62243" lon="5.66027">
        <ele>292</ele>
        <time>2012-12-29T08:50:57.000Z</time>
      </trkpt>
      <trkpt lat="43.62203" lon="5.66062">
        <ele>295</ele>
        <time>2012-12-29T08:51:29.000Z</time>
      </trkpt>
      <trkpt lat="43.6216" lon="5.66086">
        <ele>294.39999389648</ele>
        <time>2012-12-29T08:51:45.000Z</time>
      </trkpt>
      <trkpt lat="43.62115" lon="5.66102">
        <ele>296.39999389648</ele>
        <time>2012-12-29T08:51:59.000Z</time>
      </trkpt>
      <trkpt lat="43.62075" lon="5.66128">
        <ele>296</ele>
        <time>2012-12-29T08:52:13.000Z</time>
      </trkpt>
      <trkpt lat="43.62031" lon="5.66141">
        <ele>293.39999389648</ele>
        <time>2012-12-29T08:52:29.000Z</time>
      </trkpt>
      <trkpt lat="43.62011" lon="5.66201">
        <ele>291.20001220703</ele>
        <time>2012-12-29T08:52:43.000Z</time>
      </trkpt>
      <trkpt lat="43.61993" lon="5.66259">
        <ele>290.60000610352</ele>
        <time>2012-12-29T08:52:55.000Z</time>
      </trkpt>
      <trkpt lat="43.61973" lon="5.663">
        <ele>289.60000610352</ele>
        <time>2012-12-29T08:53:08.000Z</time>
      </trkpt>
      <trkpt lat="43.61927" lon="5.6628">
        <ele>287.20001220703</ele>
        <time>2012-12-29T08:53:56.000Z</time>
      </trkpt>
      <trkpt lat="43.61882" lon="5.66301">
        <ele>288.79998779297</ele>
        <time>2012-12-29T08:54:14.000Z</time>
      </trkpt>
      <trkpt lat="43.61838" lon="5.66321">
        <ele>292.60000610352</ele>
        <time>2012-12-29T08:54:27.000Z</time>
      </trkpt>
      <trkpt lat="43.61802" lon="5.66291">
        <ele>295.60000610352</ele>
        <time>2012-12-29T08:54:41.000Z</time>
      </trkpt>
      <trkpt lat="43.61771" lon="5.6624">
        <ele>297.60000610352</ele>
        <time>2012-12-29T08:54:55.000Z</time>
      </trkpt>
      <trkpt lat="43.61726" lon="5.66223">
        <ele>299.20001220703</ele>
        <time>2012-12-29T08:55:09.000Z</time>
      </trkpt>
      <trkpt lat="43.61691" lon="5.66268">
        <ele>299.60000610352</ele>
        <time>2012-12-29T08:55:24.000Z</time>
      </trkpt>
      <trkpt lat="43.61662" lon="5.6632">
        <ele>301.79998779297</ele>
        <time>2012-12-29T08:55:38.000Z</time>
      </trkpt>
      <trkpt lat="43.61622" lon="5.66347">
        <ele>302.39999389648</ele>
        <time>2012-12-29T08:55:53.000Z</time>
      </trkpt>
      <trkpt lat="43.61576" lon="5.66353">
        <ele>301.60000610352</ele>
        <time>2012-12-29T08:56:05.000Z</time>
      </trkpt>
      <trkpt lat="43.61535" lon="5.66328">
        <ele>299</ele>
        <time>2012-12-29T08:56:14.000Z</time>
      </trkpt>
      <trkpt lat="43.61493" lon="5.66305">
        <ele>298.20001220703</ele>
        <time>2012-12-29T08:56:25.000Z</time>
      </trkpt>
      <trkpt lat="43.61453" lon="5.66316">
        <ele>298.39999389648</ele>
        <time>2012-12-29T08:56:37.000Z</time>
      </trkpt>
      <trkpt lat="43.61417" lon="5.66358">
        <ele>299.39999389648</ele>
        <time>2012-12-29T08:56:50.000Z</time>
      </trkpt>
      <trkpt lat="43.6138" lon="5.66398">
        <ele>302.79998779297</ele>
        <time>2012-12-29T08:57:03.000Z</time>
      </trkpt>
      <trkpt lat="43.6134" lon="5.66434">
        <ele>307.20001220703</ele>
        <time>2012-12-29T08:57:16.000Z</time>
      </trkpt>
      <trkpt lat="43.61307" lon="5.66479">
        <ele>310.39999389648</ele>
        <time>2012-12-29T08:57:29.000Z</time>
      </trkpt>
      <trkpt lat="43.61278" lon="5.66532">
        <ele>313</ele>
        <time>2012-12-29T08:57:43.000Z</time>
      </trkpt>
      <trkpt lat="43.61256" lon="5.66588">
        <ele>313.79998779297</ele>
        <time>2012-12-29T08:57:58.000Z</time>
      </trkpt>
      <trkpt lat="43.61211" lon="5.66599">
        <ele>318.79998779297</ele>
        <time>2012-12-29T08:58:14.000Z</time>
      </trkpt>
      <trkpt lat="43.6117" lon="5.66596">
        <ele>323.79998779297</ele>
        <time>2012-12-29T08:58:33.000Z</time>
      </trkpt>
      <trkpt lat="43.61187" lon="5.66657">
        <ele>323</ele>
        <time>2012-12-29T08:59:00.000Z</time>
      </trkpt>
      <trkpt lat="43.6117" lon="5.66718">
        <ele>324.39999389648</ele>
        <time>2012-12-29T08:59:20.000Z</time>
      </trkpt>
      <trkpt lat="43.61154" lon="5.66779">
        <ele>326.60000610352</ele>
        <time>2012-12-29T08:59:37.000Z</time>
      </trkpt>
      <trkpt lat="43.61132" lon="5.66833">
        <ele>331</ele>
        <time>2012-12-29T08:59:57.000Z</time>
      </trkpt>
      <trkpt lat="43.61112" lon="5.66894">
        <ele>332.20001220703</ele>
        <time>2012-12-29T09:00:13.000Z</time>
      </trkpt>
      <trkpt lat="43.61103" lon="5.66958">
        <ele>332.60000610352</ele>
        <time>2012-12-29T09:00:28.000Z</time>
      </trkpt>
      <trkpt lat="43.61091" lon="5.67018">
        <ele>332.79998779297</ele>
        <time>2012-12-29T09:00:43.000Z</time>
      </trkpt>
      <trkpt lat="43.61074" lon="5.67076">
        <ele>333.20001220703</ele>
        <time>2012-12-29T09:00:56.000Z</time>
      </trkpt>
      <trkpt lat="43.61065" lon="5.67133">
        <ele>333</ele>
        <time>2012-12-29T09:01:08.000Z</time>
      </trkpt>
      <trkpt lat="43.61035" lon="5.67187">
        <ele>333.39999389648</ele>
        <time>2012-12-29T09:01:20.000Z</time>
      </trkpt>
      <trkpt lat="43.61002" lon="5.67229">
        <ele>332.60000610352</ele>
        <time>2012-12-29T09:01:32.000Z</time>
      </trkpt>
      <trkpt lat="43.60959" lon="5.67254">
        <ele>332.20001220703</ele>
        <time>2012-12-29T09:01:44.000Z</time>
      </trkpt>
      <trkpt lat="43.60914" lon="5.67277">
        <ele>331.39999389648</ele>
        <time>2012-12-29T09:01:55.000Z</time>
      </trkpt>
      <trkpt lat="43.60868" lon="5.67298">
        <ele>333.39999389648</ele>
        <time>2012-12-29T09:02:05.000Z</time>
      </trkpt>
      <trkpt lat="43.60821" lon="5.6729">
        <ele>337.60000610352</ele>
        <time>2012-12-29T09:02:19.000Z</time>
      </trkpt>
      <trkpt lat="43.60778" lon="5.67315">
        <ele>338.39999389648</ele>
        <time>2012-12-29T09:02:35.000Z</time>
      </trkpt>
      <trkpt lat="43.60737" lon="5.67349">
        <ele>338.60000610352</ele>
        <time>2012-12-29T09:02:49.000Z</time>
      </trkpt>
      <trkpt lat="43.60689" lon="5.67353">
        <ele>339</ele>
        <time>2012-12-29T09:03:07.000Z</time>
      </trkpt>
      <trkpt lat="43.60643" lon="5.67349">
        <ele>339.60000610352</ele>
        <time>2012-12-29T09:03:27.000Z</time>
      </trkpt>
      <trkpt lat="43.60598" lon="5.67377">
        <ele>340.20001220703</ele>
        <time>2012-12-29T09:03:42.000Z</time>
      </trkpt>
      <trkpt lat="43.60565" lon="5.67422">
        <ele>342.60000610352</ele>
        <time>2012-12-29T09:03:57.000Z</time>
      </trkpt>
      <trkpt lat="43.60529" lon="5.67461">
        <ele>345</ele>
        <time>2012-12-29T09:04:13.000Z</time>
      </trkpt>
      <trkpt lat="43.60491" lon="5.67501">
        <ele>347.20001220703</ele>
        <time>2012-12-29T09:04:31.000Z</time>
      </trkpt>
      <trkpt lat="43.60487" lon="5.67563">
        <ele>348.20001220703</ele>
        <time>2012-12-29T09:05:08.000Z</time>
      </trkpt>
      <trkpt lat="43.60515" lon="5.67615">
        <ele>348.60000610352</ele>
        <time>2012-12-29T09:05:26.000Z</time>
      </trkpt>
      <trkpt lat="43.60545" lon="5.67663">
        <ele>349.79998779297</ele>
        <time>2012-12-29T09:05:39.000Z</time>
      </trkpt>
      <trkpt lat="43.60577" lon="5.67713">
        <ele>349</ele>
        <time>2012-12-29T09:05:51.000Z</time>
      </trkpt>
      <trkpt lat="43.60609" lon="5.67765">
        <ele>348.60000610352</ele>
        <time>2012-12-29T09:06:03.000Z</time>
      </trkpt>
      <trkpt lat="43.6065" lon="5.67793">
        <ele>349.39999389648</ele>
        <time>2012-12-29T09:06:14.000Z</time>
      </trkpt>
      <trkpt lat="43.60678" lon="5.67842">
        <ele>349.79998779297</ele>
        <time>2012-12-29T09:06:25.000Z</time>
      </trkpt>
      <trkpt lat="43.60706" lon="5.67892">
        <ele>349.39999389648</ele>
        <time>2012-12-29T09:06:36.000Z</time>
      </trkpt>
      <trkpt lat="43.60738" lon="5.67944">
        <ele>348.39999389648</ele>
        <time>2012-12-29T09:06:47.000Z</time>
      </trkpt>
      <trkpt lat="43.60771" lon="5.67991">
        <ele>346.60000610352</ele>
        <time>2012-12-29T09:06:58.000Z</time>
      </trkpt>
      <trkpt lat="43.60793" lon="5.68026">
        <ele>345.60000610352</ele>
        <time>2012-12-29T09:07:18.000Z</time>
      </trkpt>
      <trkpt lat="43.6081" lon="5.68066">
        <ele>345</ele>
        <time>2012-12-29T09:08:11.000Z</time>
      </trkpt>
      <trkpt lat="43.60824" lon="5.68127">
        <ele>344.39999389648</ele>
        <time>2012-12-29T09:08:21.000Z</time>
      </trkpt>
      <trkpt lat="43.60839" lon="5.68189">
        <ele>343.60000610352</ele>
        <time>2012-12-29T09:08:29.000Z</time>
      </trkpt>
      <trkpt lat="43.60857" lon="5.68246">
        <ele>342.20001220703</ele>
        <time>2012-12-29T09:08:36.000Z</time>
      </trkpt>
      <trkpt lat="43.60885" lon="5.68298">
        <ele>339.39999389648</ele>
        <time>2012-12-29T09:08:44.000Z</time>
      </trkpt>
      <trkpt lat="43.60912" lon="5.68355">
        <ele>337</ele>
        <time>2012-12-29T09:08:53.000Z</time>
      </trkpt>
      <trkpt lat="43.60935" lon="5.68413">
        <ele>336</ele>
        <time>2012-12-29T09:09:04.000Z</time>
      </trkpt>
      <trkpt lat="43.60965" lon="5.68464">
        <ele>335</ele>
        <time>2012-12-29T09:09:14.000Z</time>
      </trkpt>
      <trkpt lat="43.60999" lon="5.68514">
        <ele>334.79998779297</ele>
        <time>2012-12-29T09:09:24.000Z</time>
      </trkpt>
      <trkpt lat="43.61033" lon="5.6856">
        <ele>336</ele>
        <time>2012-12-29T09:09:33.000Z</time>
      </trkpt>
      <trkpt lat="43.61066" lon="5.68609">
        <ele>337.20001220703</ele>
        <time>2012-12-29T09:09:41.000Z</time>
      </trkpt>
      <trkpt lat="43.61093" lon="5.68661">
        <ele>336.79998779297</ele>
        <time>2012-12-29T09:09:50.000Z</time>
      </trkpt>
      <trkpt lat="43.61114" lon="5.68718">
        <ele>336</ele>
        <time>2012-12-29T09:09:59.000Z</time>
      </trkpt>
      <trkpt lat="43.61124" lon="5.68785">
        <ele>333.39999389648</ele>
        <time>2012-12-29T09:10:09.000Z</time>
      </trkpt>
      <trkpt lat="43.61128" lon="5.68849">
        <ele>331</ele>
        <time>2012-12-29T09:10:18.000Z</time>
      </trkpt>
      <trkpt lat="43.61122" lon="5.68911">
        <ele>331.39999389648</ele>
        <time>2012-12-29T09:10:26.000Z</time>
      </trkpt>
      <trkpt lat="43.61112" lon="5.68975">
        <ele>330.79998779297</ele>
        <time>2012-12-29T09:10:35.000Z</time>
      </trkpt>
      <trkpt lat="43.61109" lon="5.6904">
        <ele>330.79998779297</ele>
        <time>2012-12-29T09:10:45.000Z</time>
      </trkpt>
      <trkpt lat="43.61116" lon="5.69107">
        <ele>331</ele>
        <time>2012-12-29T09:10:55.000Z</time>
      </trkpt>
      <trkpt lat="43.61122" lon="5.69175">
        <ele>329.60000610352</ele>
        <time>2012-12-29T09:11:04.000Z</time>
      </trkpt>
      <trkpt lat="43.61129" lon="5.69237">
        <ele>326.79998779297</ele>
        <time>2012-12-29T09:11:12.000Z</time>
      </trkpt>
      <trkpt lat="43.61137" lon="5.69305">
        <ele>325</ele>
        <time>2012-12-29T09:11:21.000Z</time>
      </trkpt>
      <trkpt lat="43.61148" lon="5.69369">
        <ele>324.39999389648</ele>
        <time>2012-12-29T09:11:30.000Z</time>
      </trkpt>
      <trkpt lat="43.61164" lon="5.69428">
        <ele>324.39999389648</ele>
        <time>2012-12-29T09:11:39.000Z</time>
      </trkpt>
      <trkpt lat="43.61181" lon="5.69492">
        <ele>326</ele>
        <time>2012-12-29T09:11:49.000Z</time>
      </trkpt>
      <trkpt lat="43.61193" lon="5.69558">
        <ele>325</ele>
        <time>2012-12-29T09:11:59.000Z</time>
      </trkpt>
      <trkpt lat="43.61202" lon="5.69623">
        <ele>324.20001220703</ele>
        <time>2012-12-29T09:12:09.000Z</time>
      </trkpt>
      <trkpt lat="43.61199" lon="5.69688">
        <ele>323.60000610352</ele>
        <time>2012-12-29T09:12:19.000Z</time>
      </trkpt>
      <trkpt lat="43.61183" lon="5.69751">
        <ele>322</ele>
        <time>2012-12-29T09:12:27.000Z</time>
      </trkpt>
      <trkpt lat="43.61164" lon="5.69812">
        <ele>318.39999389648</ele>
        <time>2012-12-29T09:12:33.000Z</time>
      </trkpt>
      <trkpt lat="43.61148" lon="5.69873">
        <ele>314.79998779297</ele>
        <time>2012-12-29T09:12:49.000Z</time>
      </trkpt>
      <trkpt lat="43.61144" lon="5.69937">
        <ele>312.60000610352</ele>
        <time>2012-12-29T09:12:57.000Z</time>
      </trkpt>
      <trkpt lat="43.6115" lon="5.70004">
        <ele>312.60000610352</ele>
        <time>2012-12-29T09:13:06.000Z</time>
      </trkpt>
      <trkpt lat="43.61159" lon="5.70067">
        <ele>314.60000610352</ele>
        <time>2012-12-29T09:13:17.000Z</time>
      </trkpt>
      <trkpt lat="43.61176" lon="5.70125">
        <ele>317</ele>
        <time>2012-12-29T09:13:28.000Z</time>
      </trkpt>
      <trkpt lat="43.61206" lon="5.70171">
        <ele>318.20001220703</ele>
        <time>2012-12-29T09:13:38.000Z</time>
      </trkpt>
      <trkpt lat="43.61232" lon="5.70221">
        <ele>318.79998779297</ele>
        <time>2012-12-29T09:13:48.000Z</time>
      </trkpt>
      <trkpt lat="43.61223" lon="5.70286">
        <ele>321</ele>
        <time>2012-12-29T09:13:58.000Z</time>
      </trkpt>
      <trkpt lat="43.61208" lon="5.70349">
        <ele>322.79998779297</ele>
        <time>2012-12-29T09:14:08.000Z</time>
      </trkpt>
      <trkpt lat="43.61198" lon="5.70411">
        <ele>324</ele>
        <time>2012-12-29T09:14:17.000Z</time>
      </trkpt>
      <trkpt lat="43.61188" lon="5.70473">
        <ele>324.60000610352</ele>
        <time>2012-12-29T09:14:26.000Z</time>
      </trkpt>
      <trkpt lat="43.61179" lon="5.70539">
        <ele>324.20001220703</ele>
        <time>2012-12-29T09:14:36.000Z</time>
      </trkpt>
      <trkpt lat="43.61175" lon="5.70607">
        <ele>323</ele>
        <time>2012-12-29T09:14:46.000Z</time>
      </trkpt>
      <trkpt lat="43.61171" lon="5.70672">
        <ele>320.60000610352</ele>
        <time>2012-12-29T09:14:54.000Z</time>
      </trkpt>
      <trkpt lat="43.61167" lon="5.70739">
        <ele>319.20001220703</ele>
        <time>2012-12-29T09:15:01.000Z</time>
      </trkpt>
      <trkpt lat="43.61162" lon="5.70805">
        <ele>318.39999389648</ele>
        <time>2012-12-29T09:15:08.000Z</time>
      </trkpt>
      <trkpt lat="43.61158" lon="5.70867">
        <ele>318.60000610352</ele>
        <time>2012-12-29T09:15:15.000Z</time>
      </trkpt>
      <trkpt lat="43.61153" lon="5.70937">
        <ele>318.60000610352</ele>
        <time>2012-12-29T09:15:23.000Z</time>
      </trkpt>
      <trkpt lat="43.61148" lon="5.71007">
        <ele>316.39999389648</ele>
        <time>2012-12-29T09:15:31.000Z</time>
      </trkpt>
      <trkpt lat="43.61143" lon="5.71068">
        <ele>315.60000610352</ele>
        <time>2012-12-29T09:15:38.000Z</time>
      </trkpt>
      <trkpt lat="43.61138" lon="5.71138">
        <ele>315.20001220703</ele>
        <time>2012-12-29T09:15:46.000Z</time>
      </trkpt>
      <trkpt lat="43.61134" lon="5.71208">
        <ele>315.20001220703</ele>
        <time>2012-12-29T09:15:54.000Z</time>
      </trkpt>
      <trkpt lat="43.61134" lon="5.71271">
        <ele>315.20001220703</ele>
        <time>2012-12-29T09:16:01.000Z</time>
      </trkpt>
      <trkpt lat="43.61135" lon="5.7134">
        <ele>315.39999389648</ele>
        <time>2012-12-29T09:16:09.000Z</time>
      </trkpt>
      <trkpt lat="43.61138" lon="5.71403">
        <ele>317.20001220703</ele>
        <time>2012-12-29T09:16:16.000Z</time>
      </trkpt>
      <trkpt lat="43.61141" lon="5.71473">
        <ele>319.20001220703</ele>
        <time>2012-12-29T09:16:23.000Z</time>
      </trkpt>
      <trkpt lat="43.61144" lon="5.7154">
        <ele>321.20001220703</ele>
        <time>2012-12-29T09:16:30.000Z</time>
      </trkpt>
      <trkpt lat="43.61148" lon="5.71609">
        <ele>322</ele>
        <time>2012-12-29T09:16:38.000Z</time>
      </trkpt>
      <trkpt lat="43.61136" lon="5.71639">
        <ele>321.60000610352</ele>
        <time>2012-12-29T09:16:50.000Z</time>
      </trkpt>
      <trkpt lat="43.61109" lon="5.71581">
        <ele>321.39999389648</ele>
        <time>2012-12-29T09:17:01.000Z</time>
      </trkpt>
      <trkpt lat="43.61079" lon="5.71529">
        <ele>319</ele>
        <time>2012-12-29T09:17:10.000Z</time>
      </trkpt>
      <trkpt lat="43.61042" lon="5.71494">
        <ele>317.79998779297</ele>
        <time>2012-12-29T09:17:18.000Z</time>
      </trkpt>
      <trkpt lat="43.61008" lon="5.71442">
        <ele>317.79998779297</ele>
        <time>2012-12-29T09:17:27.000Z</time>
      </trkpt>
      <trkpt lat="43.60976" lon="5.7139">
        <ele>317.60000610352</ele>
        <time>2012-12-29T09:17:36.000Z</time>
      </trkpt>
      <trkpt lat="43.60943" lon="5.71342">
        <ele>317.20001220703</ele>
        <time>2012-12-29T09:17:45.000Z</time>
      </trkpt>
      <trkpt lat="43.60909" lon="5.71302">
        <ele>319.79998779297</ele>
        <time>2012-12-29T09:17:53.000Z</time>
      </trkpt>
      <trkpt lat="43.60863" lon="5.71302">
        <ele>323.20001220703</ele>
        <time>2012-12-29T09:18:04.000Z</time>
      </trkpt>
      <trkpt lat="43.60818" lon="5.7133">
        <ele>325.60000610352</ele>
        <time>2012-12-29T09:18:15.000Z</time>
      </trkpt>
      <trkpt lat="43.60774" lon="5.71364">
        <ele>327.20001220703</ele>
        <time>2012-12-29T09:18:26.000Z</time>
      </trkpt>
      <trkpt lat="43.60744" lon="5.71413">
        <ele>325</ele>
        <time>2012-12-29T09:18:36.000Z</time>
      </trkpt>
      <trkpt lat="43.60709" lon="5.71462">
        <ele>325.79998779297</ele>
        <time>2012-12-29T09:18:47.000Z</time>
      </trkpt>
      <trkpt lat="43.60666" lon="5.71492">
        <ele>326.79998779297</ele>
        <time>2012-12-29T09:18:57.000Z</time>
      </trkpt>
      <trkpt lat="43.60618" lon="5.71502">
        <ele>328.79998779297</ele>
        <time>2012-12-29T09:19:08.000Z</time>
      </trkpt>
      <trkpt lat="43.60571" lon="5.71503">
        <ele>330.60000610352</ele>
        <time>2012-12-29T09:19:18.000Z</time>
      </trkpt>
      <trkpt lat="43.60521" lon="5.71504">
        <ele>330.60000610352</ele>
        <time>2012-12-29T09:19:30.000Z</time>
      </trkpt>
      <trkpt lat="43.60476" lon="5.71494">
        <ele>333.20001220703</ele>
        <time>2012-12-29T09:19:40.000Z</time>
      </trkpt>
      <trkpt lat="43.60434" lon="5.71526">
        <ele>333.39999389648</ele>
        <time>2012-12-29T09:19:52.000Z</time>
      </trkpt>
      <trkpt lat="43.60393" lon="5.71553">
        <ele>336.60000610352</ele>
        <time>2012-12-29T09:20:03.000Z</time>
      </trkpt>
      <trkpt lat="43.6036" lon="5.71603">
        <ele>337.79998779297</ele>
        <time>2012-12-29T09:20:16.000Z</time>
      </trkpt>
      <trkpt lat="43.60324" lon="5.71655">
        <ele>334.39999389648</ele>
        <time>2012-12-29T09:20:28.000Z</time>
      </trkpt>
      <trkpt lat="43.60286" lon="5.71695">
        <ele>336.79998779297</ele>
        <time>2012-12-29T09:20:40.000Z</time>
      </trkpt>
      <trkpt lat="43.60272" lon="5.71749">
        <ele>335</ele>
        <time>2012-12-29T09:20:57.000Z</time>
      </trkpt>
      <trkpt lat="43.60238" lon="5.71793">
        <ele>335.60000610352</ele>
        <time>2012-12-29T09:21:09.000Z</time>
      </trkpt>
      <trkpt lat="43.6021" lon="5.71843">
        <ele>336.39999389648</ele>
        <time>2012-12-29T09:21:22.000Z</time>
      </trkpt>
      <trkpt lat="43.60219" lon="5.719">
        <ele>336.20001220703</ele>
        <time>2012-12-29T09:21:35.000Z</time>
      </trkpt>
      <trkpt lat="43.6023" lon="5.71964">
        <ele>336.20001220703</ele>
        <time>2012-12-29T09:21:45.000Z</time>
      </trkpt>
      <trkpt lat="43.60199" lon="5.72014">
        <ele>340.79998779297</ele>
        <time>2012-12-29T09:21:57.000Z</time>
      </trkpt>
      <trkpt lat="43.60162" lon="5.72056">
        <ele>341.79998779297</ele>
        <time>2012-12-29T09:22:09.000Z</time>
      </trkpt>
      <trkpt lat="43.60122" lon="5.72096">
        <ele>347.60000610352</ele>
        <time>2012-12-29T09:22:21.000Z</time>
      </trkpt>
      <trkpt lat="43.60094" lon="5.72153">
        <ele>347.20001220703</ele>
        <time>2012-12-29T09:22:33.000Z</time>
      </trkpt>
      <trkpt lat="43.6008" lon="5.72223">
        <ele>343</ele>
        <time>2012-12-29T09:22:44.000Z</time>
      </trkpt>
      <trkpt lat="43.6007" lon="5.72285">
        <ele>341.20001220703</ele>
        <time>2012-12-29T09:22:54.000Z</time>
      </trkpt>
      <trkpt lat="43.6003" lon="5.72292">
        <ele>342.60000610352</ele>
        <time>2012-12-29T09:23:05.000Z</time>
      </trkpt>
      <trkpt lat="43.59991" lon="5.72252">
        <ele>348</ele>
        <time>2012-12-29T09:23:17.000Z</time>
      </trkpt>
      <trkpt lat="43.59949" lon="5.72222">
        <ele>349.39999389648</ele>
        <time>2012-12-29T09:23:33.000Z</time>
      </trkpt>
      <trkpt lat="43.59905" lon="5.72188">
        <ele>350</ele>
        <time>2012-12-29T09:23:54.000Z</time>
      </trkpt>
      <trkpt lat="43.59855" lon="5.72164">
        <ele>346.79998779297</ele>
        <time>2012-12-29T09:24:13.000Z</time>
      </trkpt>
      <trkpt lat="43.59807" lon="5.72165">
        <ele>346.39999389648</ele>
        <time>2012-12-29T09:24:30.000Z</time>
      </trkpt>
      <trkpt lat="43.59761" lon="5.7218">
        <ele>349.60000610352</ele>
        <time>2012-12-29T09:24:45.000Z</time>
      </trkpt>
      <trkpt lat="43.59722" lon="5.72214">
        <ele>353.39999389648</ele>
        <time>2012-12-29T09:24:59.000Z</time>
      </trkpt>
      <trkpt lat="43.59684" lon="5.72255">
        <ele>352.20001220703</ele>
        <time>2012-12-29T09:25:14.000Z</time>
      </trkpt>
      <trkpt lat="43.59637" lon="5.72272">
        <ele>356</ele>
        <time>2012-12-29T09:25:27.000Z</time>
      </trkpt>
      <trkpt lat="43.59595" lon="5.72298">
        <ele>355</ele>
        <time>2012-12-29T09:25:40.000Z</time>
      </trkpt>
      <trkpt lat="43.59554" lon="5.72325">
        <ele>354.79998779297</ele>
        <time>2012-12-29T09:25:52.000Z</time>
      </trkpt>
      <trkpt lat="43.59512" lon="5.7235">
        <ele>358.79998779297</ele>
        <time>2012-12-29T09:26:05.000Z</time>
      </trkpt>
      <trkpt lat="43.59477" lon="5.72398">
        <ele>355.60000610352</ele>
        <time>2012-12-29T09:26:22.000Z</time>
      </trkpt>
      <trkpt lat="43.59437" lon="5.72444">
        <ele>358.60000610352</ele>
        <time>2012-12-29T09:26:35.000Z</time>
      </trkpt>
      <trkpt lat="43.59392" lon="5.72443">
        <ele>365.79998779297</ele>
        <time>2012-12-29T09:26:46.000Z</time>
      </trkpt>
      <trkpt lat="43.59374" lon="5.72383">
        <ele>368.60000610352</ele>
        <time>2012-12-29T09:26:58.000Z</time>
      </trkpt>
      <trkpt lat="43.59376" lon="5.72318">
        <ele>371.39999389648</ele>
        <time>2012-12-29T09:27:10.000Z</time>
      </trkpt>
      <trkpt lat="43.59379" lon="5.72255">
        <ele>372.60000610352</ele>
        <time>2012-12-29T09:27:22.000Z</time>
      </trkpt>
      <trkpt lat="43.59367" lon="5.72191">
        <ele>372.39999389648</ele>
        <time>2012-12-29T09:27:34.000Z</time>
      </trkpt>
      <trkpt lat="43.59344" lon="5.72131">
        <ele>366.60000610352</ele>
        <time>2012-12-29T09:27:46.000Z</time>
      </trkpt>
      <trkpt lat="43.59313" lon="5.72079">
        <ele>363.79998779297</ele>
        <time>2012-12-29T09:27:57.000Z</time>
      </trkpt>
      <trkpt lat="43.59279" lon="5.72064">
        <ele>367</ele>
        <time>2012-12-29T09:28:09.000Z</time>
      </trkpt>
      <trkpt lat="43.59265" lon="5.72125">
        <ele>362</ele>
        <time>2012-12-29T09:28:21.000Z</time>
      </trkpt>
      <trkpt lat="43.59228" lon="5.72159">
        <ele>363</ele>
        <time>2012-12-29T09:28:33.000Z</time>
      </trkpt>
      <trkpt lat="43.59184" lon="5.7219">
        <ele>365.79998779297</ele>
        <time>2012-12-29T09:28:46.000Z</time>
      </trkpt>
      <trkpt lat="43.5915" lon="5.72238">
        <ele>366.39999389648</ele>
        <time>2012-12-29T09:28:58.000Z</time>
      </trkpt>
      <trkpt lat="43.59114" lon="5.72281">
        <ele>368.60000610352</ele>
        <time>2012-12-29T09:29:10.000Z</time>
      </trkpt>
      <trkpt lat="43.59075" lon="5.72315">
        <ele>369.60000610352</ele>
        <time>2012-12-29T09:29:23.000Z</time>
      </trkpt>
      <trkpt lat="43.59039" lon="5.72287">
        <ele>372.60000610352</ele>
        <time>2012-12-29T09:29:35.000Z</time>
      </trkpt>
      <trkpt lat="43.59038" lon="5.72221">
        <ele>367.39999389648</ele>
        <time>2012-12-29T09:29:46.000Z</time>
      </trkpt>
      <trkpt lat="43.59021" lon="5.72164">
        <ele>366.60000610352</ele>
        <time>2012-12-29T09:29:57.000Z</time>
      </trkpt>
      <trkpt lat="43.58982" lon="5.72131">
        <ele>369.20001220703</ele>
        <time>2012-12-29T09:30:08.000Z</time>
      </trkpt>
      <trkpt lat="43.58934" lon="5.72128">
        <ele>370.20001220703</ele>
        <time>2012-12-29T09:30:19.000Z</time>
      </trkpt>
      <trkpt lat="43.58887" lon="5.72142">
        <ele>376.20001220703</ele>
        <time>2012-12-29T09:30:31.000Z</time>
      </trkpt>
      <trkpt lat="43.5887" lon="5.72203">
        <ele>375.60000610352</ele>
        <time>2012-12-29T09:30:43.000Z</time>
      </trkpt>
      <trkpt lat="43.58883" lon="5.72264">
        <ele>375.39999389648</ele>
        <time>2012-12-29T09:30:54.000Z</time>
      </trkpt>
      <trkpt lat="43.58862" lon="5.72323">
        <ele>376.60000610352</ele>
        <time>2012-12-29T09:31:04.000Z</time>
      </trkpt>
      <trkpt lat="43.58846" lon="5.72386">
        <ele>375.39999389648</ele>
        <time>2012-12-29T09:31:15.000Z</time>
      </trkpt>
      <trkpt lat="43.58807" lon="5.7242">
        <ele>376</ele>
        <time>2012-12-29T09:31:27.000Z</time>
      </trkpt>
      <trkpt lat="43.58795" lon="5.72487">
        <ele>375</ele>
        <time>2012-12-29T09:31:39.000Z</time>
      </trkpt>
      <trkpt lat="43.58755" lon="5.72517">
        <ele>373.60000610352</ele>
        <time>2012-12-29T09:31:50.000Z</time>
      </trkpt>
      <trkpt lat="43.58711" lon="5.72533">
        <ele>374.79998779297</ele>
        <time>2012-12-29T09:32:00.000Z</time>
      </trkpt>
      <trkpt lat="43.58664" lon="5.72528">
        <ele>376.39999389648</ele>
        <time>2012-12-29T09:32:11.000Z</time>
      </trkpt>
      <trkpt lat="43.58615" lon="5.7253">
        <ele>379.20001220703</ele>
        <time>2012-12-29T09:32:23.000Z</time>
      </trkpt>
      <trkpt lat="43.58567" lon="5.7254">
        <ele>381.39999389648</ele>
        <time>2012-12-29T09:32:33.000Z</time>
      </trkpt>
      <trkpt lat="43.58525" lon="5.72517">
        <ele>381.79998779297</ele>
        <time>2012-12-29T09:32:43.000Z</time>
      </trkpt>
      <trkpt lat="43.58485" lon="5.72483">
        <ele>384.39999389648</ele>
        <time>2012-12-29T09:32:54.000Z</time>
      </trkpt>
      <trkpt lat="43.58439" lon="5.72481">
        <ele>383</ele>
        <time>2012-12-29T09:33:05.000Z</time>
      </trkpt>
      <trkpt lat="43.58398" lon="5.7248">
        <ele>384.60000610352</ele>
        <time>2012-12-29T09:33:17.000Z</time>
      </trkpt>
      <trkpt lat="43.58368" lon="5.72427">
        <ele>388.79998779297</ele>
        <time>2012-12-29T09:33:33.000Z</time>
      </trkpt>
      <trkpt lat="43.58335" lon="5.72383">
        <ele>385.79998779297</ele>
        <time>2012-12-29T09:33:46.000Z</time>
      </trkpt>
      <trkpt lat="43.58308" lon="5.72345">
        <ele>386.60000610352</ele>
        <time>2012-12-29T09:38:33.000Z</time>
      </trkpt>
      <trkpt lat="43.5832" lon="5.72403">
        <ele>387.60000610352</ele>
        <time>2012-12-29T09:38:54.000Z</time>
      </trkpt>
      <trkpt lat="43.58356" lon="5.72452">
        <ele>389</ele>
        <time>2012-12-29T09:39:05.000Z</time>
      </trkpt>
      <trkpt lat="43.58385" lon="5.725">
        <ele>385</ele>
        <time>2012-12-29T09:39:16.000Z</time>
      </trkpt>
      <trkpt lat="43.58413" lon="5.72544">
        <ele>383.39999389648</ele>
        <time>2012-12-29T09:39:27.000Z</time>
      </trkpt>
      <trkpt lat="43.58417" lon="5.72611">
        <ele>386.20001220703</ele>
        <time>2012-12-29T09:39:39.000Z</time>
      </trkpt>
      <trkpt lat="43.58442" lon="5.72662">
        <ele>388.60000610352</ele>
        <time>2012-12-29T09:39:50.000Z</time>
      </trkpt>
      <trkpt lat="43.58428" lon="5.72721">
        <ele>387.20001220703</ele>
        <time>2012-12-29T09:40:01.000Z</time>
      </trkpt>
      <trkpt lat="43.58446" lon="5.72779">
        <ele>388.20001220703</ele>
        <time>2012-12-29T09:40:15.000Z</time>
      </trkpt>
      <trkpt lat="43.58451" lon="5.72849">
        <ele>386.39999389648</ele>
        <time>2012-12-29T09:40:32.000Z</time>
      </trkpt>
      <trkpt lat="43.58431" lon="5.72903">
        <ele>381.60000610352</ele>
        <time>2012-12-29T09:40:44.000Z</time>
      </trkpt>
      <trkpt lat="43.58382" lon="5.72906">
        <ele>380.60000610352</ele>
        <time>2012-12-29T09:40:56.000Z</time>
      </trkpt>
      <trkpt lat="43.58337" lon="5.72884">
        <ele>384.20001220703</ele>
        <time>2012-12-29T09:41:08.000Z</time>
      </trkpt>
      <trkpt lat="43.58292" lon="5.72862">
        <ele>386.39999389648</ele>
        <time>2012-12-29T09:41:20.000Z</time>
      </trkpt>
      <trkpt lat="43.58248" lon="5.72849">
        <ele>386.60000610352</ele>
        <time>2012-12-29T09:41:31.000Z</time>
      </trkpt>
      <trkpt lat="43.58204" lon="5.72866">
        <ele>389</ele>
        <time>2012-12-29T09:41:43.000Z</time>
      </trkpt>
      <trkpt lat="43.58166" lon="5.72906">
        <ele>386.60000610352</ele>
        <time>2012-12-29T09:41:55.000Z</time>
      </trkpt>
      <trkpt lat="43.5814" lon="5.72962">
        <ele>391</ele>
        <time>2012-12-29T09:42:07.000Z</time>
      </trkpt>
      <trkpt lat="43.58118" lon="5.73021">
        <ele>389.60000610352</ele>
        <time>2012-12-29T09:42:19.000Z</time>
      </trkpt>
      <trkpt lat="43.58096" lon="5.73081">
        <ele>384.79998779297</ele>
        <time>2012-12-29T09:42:31.000Z</time>
      </trkpt>
      <trkpt lat="43.58056" lon="5.73106">
        <ele>386.20001220703</ele>
        <time>2012-12-29T09:42:43.000Z</time>
      </trkpt>
      <trkpt lat="43.58008" lon="5.731">
        <ele>388.20001220703</ele>
        <time>2012-12-29T09:42:54.000Z</time>
      </trkpt>
      <trkpt lat="43.57981" lon="5.73151">
        <ele>394.60000610352</ele>
        <time>2012-12-29T09:43:06.000Z</time>
      </trkpt>
      <trkpt lat="43.5799" lon="5.73214">
        <ele>392.20001220703</ele>
        <time>2012-12-29T09:43:18.000Z</time>
      </trkpt>
      <trkpt lat="43.58025" lon="5.73254">
        <ele>390.39999389648</ele>
        <time>2012-12-29T09:43:30.000Z</time>
      </trkpt>
      <trkpt lat="43.58073" lon="5.73251">
        <ele>388.39999389648</ele>
        <time>2012-12-29T09:43:42.000Z</time>
      </trkpt>
      <trkpt lat="43.58122" lon="5.73246">
        <ele>388</ele>
        <time>2012-12-29T09:43:54.000Z</time>
      </trkpt>
      <trkpt lat="43.58162" lon="5.73218">
        <ele>388</ele>
        <time>2012-12-29T09:44:06.000Z</time>
      </trkpt>
      <trkpt lat="43.58169" lon="5.73155">
        <ele>388</ele>
        <time>2012-12-29T09:44:17.000Z</time>
      </trkpt>
      <trkpt lat="43.582" lon="5.73105">
        <ele>388.79998779297</ele>
        <time>2012-12-29T09:44:29.000Z</time>
      </trkpt>
      <trkpt lat="43.58238" lon="5.73077">
        <ele>389.60000610352</ele>
        <time>2012-12-29T09:44:40.000Z</time>
      </trkpt>
      <trkpt lat="43.58276" lon="5.7311">
        <ele>394</ele>
        <time>2012-12-29T09:44:54.000Z</time>
      </trkpt>
      <trkpt lat="43.58279" lon="5.73162">
        <ele>396.20001220703</ele>
        <time>2012-12-29T09:46:27.000Z</time>
      </trkpt>
      <trkpt lat="43.58273" lon="5.73219">
        <ele>396.79998779297</ele>
        <time>2012-12-29T10:00:02.000Z</time>
      </trkpt>
      <trkpt lat="43.58268" lon="5.7328">
        <ele>398.39999389648</ele>
        <time>2012-12-29T10:00:16.000Z</time>
      </trkpt>
      <trkpt lat="43.58242" lon="5.73333">
        <ele>394.79998779297</ele>
        <time>2012-12-29T10:00:30.000Z</time>
      </trkpt>
      <trkpt lat="43.58211" lon="5.73386">
        <ele>397.60000610352</ele>
        <time>2012-12-29T10:00:43.000Z</time>
      </trkpt>
      <trkpt lat="43.58168" lon="5.73413">
        <ele>393.20001220703</ele>
        <time>2012-12-29T10:00:56.000Z</time>
      </trkpt>
      <trkpt lat="43.58123" lon="5.73407">
        <ele>393.39999389648</ele>
        <time>2012-12-29T10:01:08.000Z</time>
      </trkpt>
      <trkpt lat="43.58076" lon="5.73392">
        <ele>394.60000610352</ele>
        <time>2012-12-29T10:01:22.000Z</time>
      </trkpt>
      <trkpt lat="43.58043" lon="5.73437">
        <ele>399.79998779297</ele>
        <time>2012-12-29T10:01:35.000Z</time>
      </trkpt>
      <trkpt lat="43.58035" lon="5.73504">
        <ele>400</ele>
        <time>2012-12-29T10:01:49.000Z</time>
      </trkpt>
      <trkpt lat="43.58024" lon="5.7357">
        <ele>398.60000610352</ele>
        <time>2012-12-29T10:02:02.000Z</time>
      </trkpt>
      <trkpt lat="43.58015" lon="5.73632">
        <ele>399.39999389648</ele>
        <time>2012-12-29T10:02:15.000Z</time>
      </trkpt>
      <trkpt lat="43.5797" lon="5.73655">
        <ele>399.60000610352</ele>
        <time>2012-12-29T10:02:31.000Z</time>
      </trkpt>
      <trkpt lat="43.57926" lon="5.73654">
        <ele>401</ele>
        <time>2012-12-29T10:02:42.000Z</time>
      </trkpt>
      <trkpt lat="43.57881" lon="5.73647">
        <ele>401.20001220703</ele>
        <time>2012-12-29T10:02:53.000Z</time>
      </trkpt>
      <trkpt lat="43.57838" lon="5.73665">
        <ele>400</ele>
        <time>2012-12-29T10:03:04.000Z</time>
      </trkpt>
      <trkpt lat="43.57836" lon="5.73606">
        <ele>402.79998779297</ele>
        <time>2012-12-29T10:03:20.000Z</time>
      </trkpt>
      <trkpt lat="43.57814" lon="5.73541">
        <ele>410.79998779297</ele>
        <time>2012-12-29T10:03:56.000Z</time>
      </trkpt>
      <trkpt lat="43.57809" lon="5.73473">
        <ele>416.39999389648</ele>
        <time>2012-12-29T10:04:09.000Z</time>
      </trkpt>
      <trkpt lat="43.57778" lon="5.7342">
        <ele>417.60000610352</ele>
        <time>2012-12-29T10:04:21.000Z</time>
      </trkpt>
      <trkpt lat="43.57763" lon="5.73356">
        <ele>416.79998779297</ele>
        <time>2012-12-29T10:04:36.000Z</time>
      </trkpt>
      <trkpt lat="43.57754" lon="5.7329">
        <ele>419.20001220703</ele>
        <time>2012-12-29T10:04:53.000Z</time>
      </trkpt>
      <trkpt lat="43.57715" lon="5.73316">
        <ele>419.39999389648</ele>
        <time>2012-12-29T10:05:10.000Z</time>
      </trkpt>
      <trkpt lat="43.57684" lon="5.73352">
        <ele>421.60000610352</ele>
        <time>2012-12-29T10:05:25.000Z</time>
      </trkpt>
      <trkpt lat="43.57636" lon="5.73365">
        <ele>427.39999389648</ele>
        <time>2012-12-29T10:05:42.000Z</time>
      </trkpt>
      <trkpt lat="43.57596" lon="5.73344">
        <ele>428.79998779297</ele>
        <time>2012-12-29T10:05:55.000Z</time>
      </trkpt>
      <trkpt lat="43.57556" lon="5.73312">
        <ele>434</ele>
        <time>2012-12-29T10:06:08.000Z</time>
      </trkpt>
      <trkpt lat="43.57511" lon="5.73296">
        <ele>437</ele>
        <time>2012-12-29T10:06:22.000Z</time>
      </trkpt>
      <trkpt lat="43.57474" lon="5.73285">
        <ele>439.20001220703</ele>
        <time>2012-12-29T10:06:36.000Z</time>
      </trkpt>
      <trkpt lat="43.57443" lon="5.73243">
        <ele>440.20001220703</ele>
        <time>2012-12-29T10:06:50.000Z</time>
      </trkpt>
      <trkpt lat="43.574" lon="5.73216">
        <ele>442.79998779297</ele>
        <time>2012-12-29T10:07:04.000Z</time>
      </trkpt>
      <trkpt lat="43.57355" lon="5.73195">
        <ele>445.20001220703</ele>
        <time>2012-12-29T10:07:19.000Z</time>
      </trkpt>
      <trkpt lat="43.57308" lon="5.73175">
        <ele>446.39999389648</ele>
        <time>2012-12-29T10:07:33.000Z</time>
      </trkpt>
      <trkpt lat="43.57261" lon="5.73178">
        <ele>448.79998779297</ele>
        <time>2012-12-29T10:07:47.000Z</time>
      </trkpt>
      <trkpt lat="43.57215" lon="5.73186">
        <ele>450.79998779297</ele>
        <time>2012-12-29T10:08:01.000Z</time>
      </trkpt>
      <trkpt lat="43.5718" lon="5.73142">
        <ele>452.79998779297</ele>
        <time>2012-12-29T10:08:19.000Z</time>
      </trkpt>
      <trkpt lat="43.57182" lon="5.73077">
        <ele>456.60000610352</ele>
        <time>2012-12-29T10:08:35.000Z</time>
      </trkpt>
      <trkpt lat="43.57157" lon="5.73032">
        <ele>460</ele>
        <time>2012-12-29T10:08:51.000Z</time>
      </trkpt>
      <trkpt lat="43.57116" lon="5.73">
        <ele>461.60000610352</ele>
        <time>2012-12-29T10:09:17.000Z</time>
      </trkpt>
      <trkpt lat="43.57101" lon="5.72952">
        <ele>464</ele>
        <time>2012-12-29T10:12:43.000Z</time>
      </trkpt>
      <trkpt lat="43.57069" lon="5.72907">
        <ele>465.79998779297</ele>
        <time>2012-12-29T10:12:58.000Z</time>
      </trkpt>
      <trkpt lat="43.57038" lon="5.72856">
        <ele>466</ele>
        <time>2012-12-29T10:13:16.000Z</time>
      </trkpt>
      <trkpt lat="43.57014" lon="5.728">
        <ele>467.20001220703</ele>
        <time>2012-12-29T10:13:34.000Z</time>
      </trkpt>
      <trkpt lat="43.56988" lon="5.72746">
        <ele>468.20001220703</ele>
        <time>2012-12-29T10:13:54.000Z</time>
      </trkpt>
      <trkpt lat="43.56966" lon="5.72689">
        <ele>467.60000610352</ele>
        <time>2012-12-29T10:14:12.000Z</time>
      </trkpt>
      <trkpt lat="43.56966" lon="5.72626">
        <ele>468.20001220703</ele>
        <time>2012-12-29T10:14:28.000Z</time>
      </trkpt>
      <trkpt lat="43.56976" lon="5.72561">
        <ele>470.39999389648</ele>
        <time>2012-12-29T10:14:42.000Z</time>
      </trkpt>
      <trkpt lat="43.56961" lon="5.72499">
        <ele>472.60000610352</ele>
        <time>2012-12-29T10:14:55.000Z</time>
      </trkpt>
      <trkpt lat="43.56969" lon="5.72438">
        <ele>476.39999389648</ele>
        <time>2012-12-29T10:15:08.000Z</time>
      </trkpt>
      <trkpt lat="43.56932" lon="5.72472">
        <ele>473</ele>
        <time>2012-12-29T10:15:23.000Z</time>
      </trkpt>
      <trkpt lat="43.56905" lon="5.72522">
        <ele>468.39999389648</ele>
        <time>2012-12-29T10:15:37.000Z</time>
      </trkpt>
      <trkpt lat="43.56863" lon="5.7251">
        <ele>468.20001220703</ele>
        <time>2012-12-29T10:15:51.000Z</time>
      </trkpt>
      <trkpt lat="43.56844" lon="5.72453">
        <ele>470.60000610352</ele>
        <time>2012-12-29T10:16:03.000Z</time>
      </trkpt>
      <trkpt lat="43.56801" lon="5.72478">
        <ele>467.39999389648</ele>
        <time>2012-12-29T10:16:15.000Z</time>
      </trkpt>
      <trkpt lat="43.56769" lon="5.72429">
        <ele>468.79998779297</ele>
        <time>2012-12-29T10:16:27.000Z</time>
      </trkpt>
      <trkpt lat="43.56742" lon="5.72374">
        <ele>472</ele>
        <time>2012-12-29T10:16:39.000Z</time>
      </trkpt>
      <trkpt lat="43.567" lon="5.72376">
        <ele>471.39999389648</ele>
        <time>2012-12-29T10:16:52.000Z</time>
      </trkpt>
      <trkpt lat="43.56654" lon="5.72383">
        <ele>469.79998779297</ele>
        <time>2012-12-29T10:17:05.000Z</time>
      </trkpt>
      <trkpt lat="43.56623" lon="5.72339">
        <ele>471.20001220703</ele>
        <time>2012-12-29T10:17:17.000Z</time>
      </trkpt>
      <trkpt lat="43.56621" lon="5.72275">
        <ele>475.20001220703</ele>
        <time>2012-12-29T10:17:29.000Z</time>
      </trkpt>
      <trkpt lat="43.56616" lon="5.72226">
        <ele>478.20001220703</ele>
        <time>2012-12-29T10:17:45.000Z</time>
      </trkpt>
      <trkpt lat="43.56573" lon="5.72234">
        <ele>475.39999389648</ele>
        <time>2012-12-29T10:18:01.000Z</time>
      </trkpt>
      <trkpt lat="43.56545" lon="5.72182">
        <ele>477.39999389648</ele>
        <time>2012-12-29T10:18:18.000Z</time>
      </trkpt>
      <trkpt lat="43.56518" lon="5.7213">
        <ele>480.79998779297</ele>
        <time>2012-12-29T10:18:34.000Z</time>
      </trkpt>
      <trkpt lat="43.56488" lon="5.72078">
        <ele>485</ele>
        <time>2012-12-29T10:18:50.000Z</time>
      </trkpt>
      <trkpt lat="43.56448" lon="5.72042">
        <ele>486.60000610352</ele>
        <time>2012-12-29T10:19:05.000Z</time>
      </trkpt>
      <trkpt lat="43.56416" lon="5.71996">
        <ele>488.20001220703</ele>
        <time>2012-12-29T10:19:20.000Z</time>
      </trkpt>
      <trkpt lat="43.56388" lon="5.71945">
        <ele>490.79998779297</ele>
        <time>2012-12-29T10:19:35.000Z</time>
      </trkpt>
      <trkpt lat="43.56367" lon="5.71886">
        <ele>492.60000610352</ele>
        <time>2012-12-29T10:19:49.000Z</time>
      </trkpt>
      <trkpt lat="43.56359" lon="5.71822">
        <ele>495</ele>
        <time>2012-12-29T10:20:02.000Z</time>
      </trkpt>
      <trkpt lat="43.56336" lon="5.71763">
        <ele>498</ele>
        <time>2012-12-29T10:20:15.000Z</time>
      </trkpt>
      <trkpt lat="43.56312" lon="5.71705">
        <ele>501</ele>
        <time>2012-12-29T10:20:27.000Z</time>
      </trkpt>
      <trkpt lat="43.56303" lon="5.71643">
        <ele>505.20001220703</ele>
        <time>2012-12-29T10:20:39.000Z</time>
      </trkpt>
      <trkpt lat="43.56302" lon="5.71577">
        <ele>509</ele>
        <time>2012-12-29T10:20:51.000Z</time>
      </trkpt>
      <trkpt lat="43.56297" lon="5.71513">
        <ele>511.79998779297</ele>
        <time>2012-12-29T10:21:03.000Z</time>
      </trkpt>
      <trkpt lat="43.56263" lon="5.71532">
        <ele>509.60000610352</ele>
        <time>2012-12-29T10:21:14.000Z</time>
      </trkpt>
      <trkpt lat="43.56233" lon="5.71581">
        <ele>504.20001220703</ele>
        <time>2012-12-29T10:21:25.000Z</time>
      </trkpt>
      <trkpt lat="43.56192" lon="5.7156">
        <ele>504.39999389648</ele>
        <time>2012-12-29T10:21:35.000Z</time>
      </trkpt>
      <trkpt lat="43.56159" lon="5.71513">
        <ele>508.20001220703</ele>
        <time>2012-12-29T10:21:46.000Z</time>
      </trkpt>
      <trkpt lat="43.56119" lon="5.71478">
        <ele>510.60000610352</ele>
        <time>2012-12-29T10:21:57.000Z</time>
      </trkpt>
      <trkpt lat="43.56079" lon="5.71446">
        <ele>511.79998779297</ele>
        <time>2012-12-29T10:22:07.000Z</time>
      </trkpt>
      <trkpt lat="43.56037" lon="5.71412">
        <ele>512.59997558594</ele>
        <time>2012-12-29T10:22:17.000Z</time>
      </trkpt>
      <trkpt lat="43.56002" lon="5.71369">
        <ele>513.59997558594</ele>
        <time>2012-12-29T10:22:27.000Z</time>
      </trkpt>
      <trkpt lat="43.55975" lon="5.71319">
        <ele>514.40002441406</ele>
        <time>2012-12-29T10:22:37.000Z</time>
      </trkpt>
      <trkpt lat="43.55945" lon="5.71267">
        <ele>514.79998779297</ele>
        <time>2012-12-29T10:22:47.000Z</time>
      </trkpt>
      <trkpt lat="43.55923" lon="5.71206">
        <ele>516</ele>
        <time>2012-12-29T10:22:57.000Z</time>
      </trkpt>
      <trkpt lat="43.55891" lon="5.71155">
        <ele>516.59997558594</ele>
        <time>2012-12-29T10:23:07.000Z</time>
      </trkpt>
      <trkpt lat="43.55862" lon="5.71104">
        <ele>517.59997558594</ele>
        <time>2012-12-29T10:23:16.000Z</time>
      </trkpt>
      <trkpt lat="43.5583" lon="5.71052">
        <ele>516.20001220703</ele>
        <time>2012-12-29T10:23:25.000Z</time>
      </trkpt>
      <trkpt lat="43.55807" lon="5.71">
        <ele>514.79998779297</ele>
        <time>2012-12-29T10:23:33.000Z</time>
      </trkpt>
      <trkpt lat="43.558" lon="5.70937">
        <ele>516.79998779297</ele>
        <time>2012-12-29T10:23:41.000Z</time>
      </trkpt>
      <trkpt lat="43.55778" lon="5.70877">
        <ele>517.20001220703</ele>
        <time>2012-12-29T10:23:49.000Z</time>
      </trkpt>
      <trkpt lat="43.55761" lon="5.70813">
        <ele>516.20001220703</ele>
        <time>2012-12-29T10:23:57.000Z</time>
      </trkpt>
      <trkpt lat="43.55764" lon="5.70744">
        <ele>514.40002441406</ele>
        <time>2012-12-29T10:24:05.000Z</time>
      </trkpt>
      <trkpt lat="43.55785" lon="5.70687">
        <ele>513.59997558594</ele>
        <time>2012-12-29T10:24:13.000Z</time>
      </trkpt>
      <trkpt lat="43.55826" lon="5.70673">
        <ele>517.59997558594</ele>
        <time>2012-12-29T10:27:03.000Z</time>
      </trkpt>
      <trkpt lat="43.55845" lon="5.70617">
        <ele>517.40002441406</ele>
        <time>2012-12-29T10:27:35.000Z</time>
      </trkpt>
      <trkpt lat="43.55886" lon="5.70587">
        <ele>520.59997558594</ele>
        <time>2012-12-29T10:27:56.000Z</time>
      </trkpt>
      <trkpt lat="43.55931" lon="5.70609">
        <ele>529.20001220703</ele>
        <time>2012-12-29T10:28:33.000Z</time>
      </trkpt>
      <trkpt lat="43.55967" lon="5.70615">
        <ele>534.79998779297</ele>
        <time>2012-12-29T10:30:31.000Z</time>
      </trkpt>
      <trkpt lat="43.56008" lon="5.70583">
        <ele>537</ele>
        <time>2012-12-29T10:30:54.000Z</time>
      </trkpt>
      <trkpt lat="43.56018" lon="5.70524">
        <ele>542.20001220703</ele>
        <time>2012-12-29T10:31:15.000Z</time>
      </trkpt>
      <trkpt lat="43.56" lon="5.70466">
        <ele>542.40002441406</ele>
        <time>2012-12-29T10:31:38.000Z</time>
      </trkpt>
      <trkpt lat="43.55989" lon="5.70405">
        <ele>544</ele>
        <time>2012-12-29T10:32:00.000Z</time>
      </trkpt>
      <trkpt lat="43.5599" lon="5.70342">
        <ele>544.79998779297</ele>
        <time>2012-12-29T10:32:14.000Z</time>
      </trkpt>
      <trkpt lat="43.55977" lon="5.70287">
        <ele>545.40002441406</ele>
        <time>2012-12-29T10:33:30.000Z</time>
      </trkpt>
      <trkpt lat="43.56005" lon="5.70239">
        <ele>547.20001220703</ele>
        <time>2012-12-29T10:33:54.000Z</time>
      </trkpt>
      <trkpt lat="43.56045" lon="5.70202">
        <ele>545.59997558594</ele>
        <time>2012-12-29T10:34:17.000Z</time>
      </trkpt>
      <trkpt lat="43.56076" lon="5.70156">
        <ele>539.79998779297</ele>
        <time>2012-12-29T10:34:57.000Z</time>
      </trkpt>
      <trkpt lat="43.5611" lon="5.70107">
        <ele>532.40002441406</ele>
        <time>2012-12-29T10:35:21.000Z</time>
      </trkpt>
      <trkpt lat="43.56156" lon="5.70081">
        <ele>524.20001220703</ele>
        <time>2012-12-29T10:35:39.000Z</time>
      </trkpt>
      <trkpt lat="43.562" lon="5.70046">
        <ele>521.59997558594</ele>
        <time>2012-12-29T10:35:54.000Z</time>
      </trkpt>
      <trkpt lat="43.56248" lon="5.70025">
        <ele>515</ele>
        <time>2012-12-29T10:36:06.000Z</time>
      </trkpt>
      <trkpt lat="43.56278" lon="5.69981">
        <ele>515.20001220703</ele>
        <time>2012-12-29T10:36:29.000Z</time>
      </trkpt>
      <trkpt lat="43.56253" lon="5.6993">
        <ele>515.79998779297</ele>
        <time>2012-12-29T10:36:47.000Z</time>
      </trkpt>
      <trkpt lat="43.56243" lon="5.69868">
        <ele>518.20001220703</ele>
        <time>2012-12-29T10:37:04.000Z</time>
      </trkpt>
      <trkpt lat="43.56227" lon="5.69806">
        <ele>520.79998779297</ele>
        <time>2012-12-29T10:37:22.000Z</time>
      </trkpt>
      <trkpt lat="43.56182" lon="5.69781">
        <ele>519.59997558594</ele>
        <time>2012-12-29T10:37:36.000Z</time>
      </trkpt>
      <trkpt lat="43.56136" lon="5.69784">
        <ele>522.40002441406</ele>
        <time>2012-12-29T10:37:48.000Z</time>
      </trkpt>
      <trkpt lat="43.56109" lon="5.69748">
        <ele>523.40002441406</ele>
        <time>2012-12-29T10:37:59.000Z</time>
      </trkpt>
      <trkpt lat="43.56124" lon="5.69688">
        <ele>523.79998779297</ele>
        <time>2012-12-29T10:38:18.000Z</time>
      </trkpt>
      <trkpt lat="43.56122" lon="5.69622">
        <ele>526.40002441406</ele>
        <time>2012-12-29T10:38:35.000Z</time>
      </trkpt>
      <trkpt lat="43.56096" lon="5.6957">
        <ele>526.59997558594</ele>
        <time>2012-12-29T10:38:50.000Z</time>
      </trkpt>
      <trkpt lat="43.56076" lon="5.69514">
        <ele>528.40002441406</ele>
        <time>2012-12-29T10:39:03.000Z</time>
      </trkpt>
      <trkpt lat="43.56083" lon="5.69453">
        <ele>529.59997558594</ele>
        <time>2012-12-29T10:39:17.000Z</time>
      </trkpt>
      <trkpt lat="43.56101" lon="5.69393">
        <ele>532.59997558594</ele>
        <time>2012-12-29T10:39:33.000Z</time>
      </trkpt>
      <trkpt lat="43.56114" lon="5.6933">
        <ele>533.59997558594</ele>
        <time>2012-12-29T10:39:47.000Z</time>
      </trkpt>
      <trkpt lat="43.56094" lon="5.69278">
        <ele>532.79998779297</ele>
        <time>2012-12-29T10:40:04.000Z</time>
      </trkpt>
      <trkpt lat="43.56053" lon="5.69252">
        <ele>533.40002441406</ele>
        <time>2012-12-29T10:40:19.000Z</time>
      </trkpt>
      <trkpt lat="43.56016" lon="5.69216">
        <ele>535.20001220703</ele>
        <time>2012-12-29T10:40:35.000Z</time>
      </trkpt>
      <trkpt lat="43.55987" lon="5.69164">
        <ele>536</ele>
        <time>2012-12-29T10:40:53.000Z</time>
      </trkpt>
      <trkpt lat="43.55962" lon="5.69108">
        <ele>539</ele>
        <time>2012-12-29T10:41:10.000Z</time>
      </trkpt>
      <trkpt lat="43.55944" lon="5.69047">
        <ele>540</ele>
        <time>2012-12-29T10:41:26.000Z</time>
      </trkpt>
      <trkpt lat="43.55939" lon="5.68982">
        <ele>540.79998779297</ele>
        <time>2012-12-29T10:41:41.000Z</time>
      </trkpt>
      <trkpt lat="43.55931" lon="5.68918">
        <ele>542</ele>
        <time>2012-12-29T10:41:56.000Z</time>
      </trkpt>
      <trkpt lat="43.55895" lon="5.68884">
        <ele>542</ele>
        <time>2012-12-29T10:42:20.000Z</time>
      </trkpt>
      <trkpt lat="43.55887" lon="5.68889">
        <ele>542</ele>
        <time>2012-12-29T10:43:06.000Z</time>
      </trkpt>
      <trkpt lat="43.55861" lon="5.68888">
        <ele>542.40002441406</ele>
        <time>2012-12-29T10:44:29.000Z</time>
      </trkpt>
      <trkpt lat="43.55819" lon="5.6886">
        <ele>543.40002441406</ele>
        <time>2012-12-29T10:44:45.000Z</time>
      </trkpt>
      <trkpt lat="43.55779" lon="5.68825">
        <ele>543.79998779297</ele>
        <time>2012-12-29T10:44:59.000Z</time>
      </trkpt>
      <trkpt lat="43.55757" lon="5.6877">
        <ele>544.59997558594</ele>
        <time>2012-12-29T10:45:13.000Z</time>
      </trkpt>
      <trkpt lat="43.55742" lon="5.68709">
        <ele>546.20001220703</ele>
        <time>2012-12-29T10:45:26.000Z</time>
      </trkpt>
      <trkpt lat="43.55724" lon="5.68647">
        <ele>549</ele>
        <time>2012-12-29T10:45:39.000Z</time>
      </trkpt>
      <trkpt lat="43.55713" lon="5.68583">
        <ele>551.79998779297</ele>
        <time>2012-12-29T10:45:52.000Z</time>
      </trkpt>
      <trkpt lat="43.55709" lon="5.68519">
        <ele>553.40002441406</ele>
        <time>2012-12-29T10:46:04.000Z</time>
      </trkpt>
      <trkpt lat="43.55698" lon="5.68457">
        <ele>554.59997558594</ele>
        <time>2012-12-29T10:46:16.000Z</time>
      </trkpt>
      <trkpt lat="43.55699" lon="5.68399">
        <ele>555.59997558594</ele>
        <time>2012-12-29T10:46:37.000Z</time>
      </trkpt>
      <trkpt lat="43.55721" lon="5.68345">
        <ele>558</ele>
        <time>2012-12-29T10:46:58.000Z</time>
      </trkpt>
      <trkpt lat="43.55723" lon="5.68284">
        <ele>560.20001220703</ele>
        <time>2012-12-29T10:48:41.000Z</time>
      </trkpt>
      <trkpt lat="43.55721" lon="5.68216">
        <ele>562.40002441406</ele>
        <time>2012-12-29T10:49:02.000Z</time>
      </trkpt>
      <trkpt lat="43.5572" lon="5.68148">
        <ele>565</ele>
        <time>2012-12-29T10:49:24.000Z</time>
      </trkpt>
      <trkpt lat="43.5572" lon="5.6808">
        <ele>567.59997558594</ele>
        <time>2012-12-29T10:49:46.000Z</time>
      </trkpt>
      <trkpt lat="43.55716" lon="5.68007">
        <ele>570.79998779297</ele>
        <time>2012-12-29T10:50:15.000Z</time>
      </trkpt>
      <trkpt lat="43.55713" lon="5.67938">
        <ele>574.20001220703</ele>
        <time>2012-12-29T10:50:39.000Z</time>
      </trkpt>
      <trkpt lat="43.55712" lon="5.67866">
        <ele>577.40002441406</ele>
        <time>2012-12-29T10:51:08.000Z</time>
      </trkpt>
      <trkpt lat="43.55709" lon="5.67802">
        <ele>580.79998779297</ele>
        <time>2012-12-29T10:52:14.000Z</time>
      </trkpt>
      <trkpt lat="43.55708" lon="5.67734">
        <ele>584.59997558594</ele>
        <time>2012-12-29T10:52:43.000Z</time>
      </trkpt>
      <trkpt lat="43.55708" lon="5.67656">
        <ele>587.79998779297</ele>
        <time>2012-12-29T10:53:33.000Z</time>
      </trkpt>
      <trkpt lat="43.55704" lon="5.67577">
        <ele>591.20001220703</ele>
        <time>2012-12-29T10:54:22.000Z</time>
      </trkpt>
      <trkpt lat="43.55714" lon="5.67531">
        <ele>594</ele>
        <time>2012-12-29T11:02:14.000Z</time>
      </trkpt>
      <trkpt lat="43.55754" lon="5.67506">
        <ele>594.59997558594</ele>
        <time>2012-12-29T11:08:04.000Z</time>
      </trkpt>
      <trkpt lat="43.55796" lon="5.67482">
        <ele>594.59997558594</ele>
        <time>2012-12-29T11:08:19.000Z</time>
      </trkpt>
      <trkpt lat="43.55803" lon="5.67478">
        <ele>594.40002441406</ele>
        <time>2012-12-29T11:08:37.000Z</time>
      </trkpt>
      <trkpt lat="43.55815" lon="5.67474">
        <ele>594.20001220703</ele>
        <time>2012-12-29T11:08:50.000Z</time>
      </trkpt>
      <trkpt lat="43.55859" lon="5.67449">
        <ele>591.59997558594</ele>
        <time>2012-12-29T11:09:01.000Z</time>
      </trkpt>
      <trkpt lat="43.55883" lon="5.67398">
        <ele>589.40002441406</ele>
        <time>2012-12-29T11:09:09.000Z</time>
      </trkpt>
      <trkpt lat="43.55912" lon="5.67357">
        <ele>586.79998779297</ele>
        <time>2012-12-29T11:09:15.000Z</time>
      </trkpt>
      <trkpt lat="43.55957" lon="5.67317">
        <ele>585.59997558594</ele>
        <time>2012-12-29T11:09:21.000Z</time>
      </trkpt>
      <trkpt lat="43.55999" lon="5.67289">
        <ele>584.79998779297</ele>
        <time>2012-12-29T11:09:28.000Z</time>
      </trkpt>
      <trkpt lat="43.56029" lon="5.6734">
        <ele>589.40002441406</ele>
        <time>2012-12-29T11:09:41.000Z</time>
      </trkpt>
      <trkpt lat="43.56055" lon="5.67347">
        <ele>592.20001220703</ele>
        <time>2012-12-29T11:09:57.000Z</time>
      </trkpt>
      <trkpt lat="43.56061" lon="5.67281">
        <ele>593.40002441406</ele>
        <time>2012-12-29T11:10:14.000Z</time>
      </trkpt>
      <trkpt lat="43.56074" lon="5.67221">
        <ele>596</ele>
        <time>2012-12-29T11:10:29.000Z</time>
      </trkpt>
      <trkpt lat="43.561" lon="5.67168">
        <ele>598.79998779297</ele>
        <time>2012-12-29T11:10:45.000Z</time>
      </trkpt>
      <trkpt lat="43.56113" lon="5.67109">
        <ele>600.59997558594</ele>
        <time>2012-12-29T11:11:10.000Z</time>
      </trkpt>
      <trkpt lat="43.56144" lon="5.67065">
        <ele>604.40002441406</ele>
        <time>2012-12-29T11:11:36.000Z</time>
      </trkpt>
      <trkpt lat="43.56175" lon="5.67014">
        <ele>608</ele>
        <time>2012-12-29T11:11:50.000Z</time>
      </trkpt>
      <trkpt lat="43.562" lon="5.66956">
        <ele>610.40002441406</ele>
        <time>2012-12-29T11:12:04.000Z</time>
      </trkpt>
      <trkpt lat="43.56241" lon="5.66953">
        <ele>610.79998779297</ele>
        <time>2012-12-29T11:12:16.000Z</time>
      </trkpt>
      <trkpt lat="43.56268" lon="5.67005">
        <ele>608.59997558594</ele>
        <time>2012-12-29T11:12:29.000Z</time>
      </trkpt>
      <trkpt lat="43.56301" lon="5.6705">
        <ele>608.40002441406</ele>
        <time>2012-12-29T11:12:42.000Z</time>
      </trkpt>
      <trkpt lat="43.56344" lon="5.67058">
        <ele>611</ele>
        <time>2012-12-29T11:12:56.000Z</time>
      </trkpt>
      <trkpt lat="43.56391" lon="5.67049">
        <ele>612.79998779297</ele>
        <time>2012-12-29T11:13:10.000Z</time>
      </trkpt>
      <trkpt lat="43.56437" lon="5.67035">
        <ele>609.59997558594</ele>
        <time>2012-12-29T11:13:34.000Z</time>
      </trkpt>
      <trkpt lat="43.56467" lon="5.6709">
        <ele>603.79998779297</ele>
        <time>2012-12-29T11:13:54.000Z</time>
      </trkpt>
      <trkpt lat="43.56498" lon="5.67144">
        <ele>603.20001220703</ele>
        <time>2012-12-29T11:14:02.000Z</time>
      </trkpt>
      <trkpt lat="43.56527" lon="5.67194">
        <ele>599.59997558594</ele>
        <time>2012-12-29T11:14:09.000Z</time>
      </trkpt>
      <trkpt lat="43.56565" lon="5.6725">
        <ele>597.79998779297</ele>
        <time>2012-12-29T11:14:15.000Z</time>
      </trkpt>
      <trkpt lat="43.56603" lon="5.67296">
        <ele>597</ele>
        <time>2012-12-29T11:14:21.000Z</time>
      </trkpt>
      <trkpt lat="43.56641" lon="5.6731">
        <ele>590.40002441406</ele>
        <time>2012-12-29T11:14:29.000Z</time>
      </trkpt>
      <trkpt lat="43.56623" lon="5.6724">
        <ele>586.79998779297</ele>
        <time>2012-12-29T11:14:36.000Z</time>
      </trkpt>
      <trkpt lat="43.56603" lon="5.6718">
        <ele>581.59997558594</ele>
        <time>2012-12-29T11:14:42.000Z</time>
      </trkpt>
      <trkpt lat="43.56586" lon="5.67122">
        <ele>575.20001220703</ele>
        <time>2012-12-29T11:14:48.000Z</time>
      </trkpt>
      <trkpt lat="43.56569" lon="5.67051">
        <ele>572.59997558594</ele>
        <time>2012-12-29T11:14:54.000Z</time>
      </trkpt>
      <trkpt lat="43.56553" lon="5.66989">
        <ele>573.20001220703</ele>
        <time>2012-12-29T11:15:01.000Z</time>
      </trkpt>
      <trkpt lat="43.56551" lon="5.66925">
        <ele>570.79998779297</ele>
        <time>2012-12-29T11:15:09.000Z</time>
      </trkpt>
      <trkpt lat="43.56551" lon="5.66859">
        <ele>568.20001220703</ele>
        <time>2012-12-29T11:15:16.000Z</time>
      </trkpt>
      <trkpt lat="43.56552" lon="5.66793">
        <ele>565.79998779297</ele>
        <time>2012-12-29T11:15:22.000Z</time>
      </trkpt>
      <trkpt lat="43.56552" lon="5.66731">
        <ele>564.79998779297</ele>
        <time>2012-12-29T11:15:28.000Z</time>
      </trkpt>
      <trkpt lat="43.56581" lon="5.66673">
        <ele>555.59997558594</ele>
        <time>2012-12-29T11:15:34.000Z</time>
      </trkpt>
      <trkpt lat="43.56624" lon="5.66636">
        <ele>557.59997558594</ele>
        <time>2012-12-29T11:15:40.000Z</time>
      </trkpt>
      <trkpt lat="43.5666" lon="5.66597">
        <ele>561</ele>
        <time>2012-12-29T11:15:48.000Z</time>
      </trkpt>
      <trkpt lat="43.567" lon="5.66563">
        <ele>562.79998779297</ele>
        <time>2012-12-29T11:15:58.000Z</time>
      </trkpt>
      <trkpt lat="43.56746" lon="5.66538">
        <ele>560.40002441406</ele>
        <time>2012-12-29T11:16:09.000Z</time>
      </trkpt>
      <trkpt lat="43.56787" lon="5.66501">
        <ele>551.59997558594</ele>
        <time>2012-12-29T11:16:17.000Z</time>
      </trkpt>
      <trkpt lat="43.56821" lon="5.66449">
        <ele>546</ele>
        <time>2012-12-29T11:16:25.000Z</time>
      </trkpt>
      <trkpt lat="43.56849" lon="5.66389">
        <ele>543.20001220703</ele>
        <time>2012-12-29T11:16:31.000Z</time>
      </trkpt>
      <trkpt lat="43.56876" lon="5.6633">
        <ele>540</ele>
        <time>2012-12-29T11:16:37.000Z</time>
      </trkpt>
      <trkpt lat="43.56898" lon="5.66266">
        <ele>535.40002441406</ele>
        <time>2012-12-29T11:16:43.000Z</time>
      </trkpt>
      <trkpt lat="43.56919" lon="5.6621">
        <ele>538.40002441406</ele>
        <time>2012-12-29T11:16:49.000Z</time>
      </trkpt>
      <trkpt lat="43.56963" lon="5.66175">
        <ele>538.20001220703</ele>
        <time>2012-12-29T11:16:57.000Z</time>
      </trkpt>
      <trkpt lat="43.57005" lon="5.66136">
        <ele>537.20001220703</ele>
        <time>2012-12-29T11:17:04.000Z</time>
      </trkpt>
      <trkpt lat="43.57044" lon="5.66099">
        <ele>534.40002441406</ele>
        <time>2012-12-29T11:17:12.000Z</time>
      </trkpt>
      <trkpt lat="43.57065" lon="5.66068">
        <ele>532.79998779297</ele>
        <time>2012-12-29T11:17:52.000Z</time>
      </trkpt>
      <trkpt lat="43.57102" lon="5.6605">
        <ele>529.40002441406</ele>
        <time>2012-12-29T11:18:03.000Z</time>
      </trkpt>
      <trkpt lat="43.5715" lon="5.66059">
        <ele>528.79998779297</ele>
        <time>2012-12-29T11:18:13.000Z</time>
      </trkpt>
      <trkpt lat="43.57177" lon="5.66099">
        <ele>529.20001220703</ele>
        <time>2012-12-29T11:18:32.000Z</time>
      </trkpt>
      <trkpt lat="43.57186" lon="5.66161">
        <ele>529</ele>
        <time>2012-12-29T11:18:49.000Z</time>
      </trkpt>
      <trkpt lat="43.57187" lon="5.66228">
        <ele>526.79998779297</ele>
        <time>2012-12-29T11:19:03.000Z</time>
      </trkpt>
      <trkpt lat="43.57203" lon="5.66219">
        <ele>529.59997558594</ele>
        <time>2012-12-29T11:19:23.000Z</time>
      </trkpt>
      <trkpt lat="43.57211" lon="5.66153">
        <ele>533.20001220703</ele>
        <time>2012-12-29T11:19:39.000Z</time>
      </trkpt>
      <trkpt lat="43.57212" lon="5.66087">
        <ele>535.40002441406</ele>
        <time>2012-12-29T11:19:56.000Z</time>
      </trkpt>
      <trkpt lat="43.57218" lon="5.66026">
        <ele>538.59997558594</ele>
        <time>2012-12-29T11:20:16.000Z</time>
      </trkpt>
      <trkpt lat="43.57244" lon="5.65976">
        <ele>545</ele>
        <time>2012-12-29T11:20:39.000Z</time>
      </trkpt>
      <trkpt lat="43.57282" lon="5.65937">
        <ele>547.79998779297</ele>
        <time>2012-12-29T11:22:53.000Z</time>
      </trkpt>
      <trkpt lat="43.57309" lon="5.65884">
        <ele>547.79998779297</ele>
        <time>2012-12-29T11:23:06.000Z</time>
      </trkpt>
      <trkpt lat="43.57323" lon="5.65828">
        <ele>546.59997558594</ele>
        <time>2012-12-29T11:23:17.000Z</time>
      </trkpt>
      <trkpt lat="43.57347" lon="5.65786">
        <ele>544.20001220703</ele>
        <time>2012-12-29T11:23:27.000Z</time>
      </trkpt>
      <trkpt lat="43.5737" lon="5.65775">
        <ele>541.20001220703</ele>
        <time>2012-12-29T11:23:41.000Z</time>
      </trkpt>
      <trkpt lat="43.57391" lon="5.65718">
        <ele>539.20001220703</ele>
        <time>2012-12-29T11:23:51.000Z</time>
      </trkpt>
      <trkpt lat="43.57399" lon="5.65655">
        <ele>538.40002441406</ele>
        <time>2012-12-29T11:23:59.000Z</time>
      </trkpt>
      <trkpt lat="43.57418" lon="5.65601">
        <ele>537.59997558594</ele>
        <time>2012-12-29T11:24:09.000Z</time>
      </trkpt>
      <trkpt lat="43.57467" lon="5.65605">
        <ele>546.40002441406</ele>
        <time>2012-12-29T11:25:18.000Z</time>
      </trkpt>
      <trkpt lat="43.57515" lon="5.65609">
        <ele>556</ele>
        <time>2012-12-29T11:26:15.000Z</time>
      </trkpt>
      <trkpt lat="43.57566" lon="5.65614">
        <ele>568</ele>
        <time>2012-12-29T11:27:11.000Z</time>
      </trkpt>
      <trkpt lat="43.57623" lon="5.65602">
        <ele>577.59997558594</ele>
        <time>2012-12-29T11:27:51.000Z</time>
      </trkpt>
      <trkpt lat="43.57679" lon="5.65596">
        <ele>585.40002441406</ele>
        <time>2012-12-29T11:28:37.000Z</time>
      </trkpt>
      <trkpt lat="43.57739" lon="5.65595">
        <ele>594.79998779297</ele>
        <time>2012-12-29T11:29:28.000Z</time>
      </trkpt>
      <trkpt lat="43.57781" lon="5.65574">
        <ele>593</ele>
        <time>2012-12-29T11:30:24.000Z</time>
      </trkpt>
      <trkpt lat="43.57824" lon="5.65582">
        <ele>588</ele>
        <time>2012-12-29T11:34:28.000Z</time>
      </trkpt>
      <trkpt lat="43.57861" lon="5.65537">
        <ele>577.20001220703</ele>
        <time>2012-12-29T11:34:50.000Z</time>
      </trkpt>
      <trkpt lat="43.57902" lon="5.65503">
        <ele>563</ele>
        <time>2012-12-29T11:35:04.000Z</time>
      </trkpt>
      <trkpt lat="43.57937" lon="5.65457">
        <ele>556.79998779297</ele>
        <time>2012-12-29T11:35:16.000Z</time>
      </trkpt>
      <trkpt lat="43.57971" lon="5.65415">
        <ele>549.40002441406</ele>
        <time>2012-12-29T11:35:31.000Z</time>
      </trkpt>
      <trkpt lat="43.58019" lon="5.65432">
        <ele>530.79998779297</ele>
        <time>2012-12-29T11:35:47.000Z</time>
      </trkpt>
      <trkpt lat="43.58044" lon="5.65364">
        <ele>525.20001220703</ele>
        <time>2012-12-29T11:37:57.000Z</time>
      </trkpt>
      <trkpt lat="43.58066" lon="5.65311">
        <ele>519</ele>
        <time>2012-12-29T11:38:06.000Z</time>
      </trkpt>
      <trkpt lat="43.58112" lon="5.65312">
        <ele>506.39999389648</ele>
        <time>2012-12-29T11:38:15.000Z</time>
      </trkpt>
      <trkpt lat="43.58136" lon="5.65243">
        <ele>500.20001220703</ele>
        <time>2012-12-29T11:38:22.000Z</time>
      </trkpt>
      <trkpt lat="43.58169" lon="5.65191">
        <ele>495.60000610352</ele>
        <time>2012-12-29T11:38:28.000Z</time>
      </trkpt>
      <trkpt lat="43.58211" lon="5.65155">
        <ele>487.60000610352</ele>
        <time>2012-12-29T11:38:35.000Z</time>
      </trkpt>
      <trkpt lat="43.58249" lon="5.65123">
        <ele>478.20001220703</ele>
        <time>2012-12-29T11:38:41.000Z</time>
      </trkpt>
      <trkpt lat="43.58296" lon="5.65119">
        <ele>465.20001220703</ele>
        <time>2012-12-29T11:38:52.000Z</time>
      </trkpt>
      <trkpt lat="43.58327" lon="5.65078">
        <ele>456.79998779297</ele>
        <time>2012-12-29T11:38:59.000Z</time>
      </trkpt>
      <trkpt lat="43.58334" lon="5.65007">
        <ele>456.60000610352</ele>
        <time>2012-12-29T11:39:05.000Z</time>
      </trkpt>
      <trkpt lat="43.58367" lon="5.64963">
        <ele>449.79998779297</ele>
        <time>2012-12-29T11:39:10.000Z</time>
      </trkpt>
      <trkpt lat="43.58414" lon="5.64956">
        <ele>436.20001220703</ele>
        <time>2012-12-29T11:39:15.000Z</time>
      </trkpt>
      <trkpt lat="43.58463" lon="5.64953">
        <ele>426.39999389648</ele>
        <time>2012-12-29T11:39:21.000Z</time>
      </trkpt>
      <trkpt lat="43.58509" lon="5.64949">
        <ele>418.20001220703</ele>
        <time>2012-12-29T11:39:28.000Z</time>
      </trkpt>
      <trkpt lat="43.58526" lon="5.64994">
        <ele>415.79998779297</ele>
        <time>2012-12-29T11:40:16.000Z</time>
      </trkpt>
      <trkpt lat="43.58521" lon="5.65061">
        <ele>415.20001220703</ele>
        <time>2012-12-29T11:40:25.000Z</time>
      </trkpt>
      <trkpt lat="43.58521" lon="5.65124">
        <ele>415.20001220703</ele>
        <time>2012-12-29T11:40:35.000Z</time>
      </trkpt>
      <trkpt lat="43.58536" lon="5.65185">
        <ele>415.20001220703</ele>
        <time>2012-12-29T11:40:45.000Z</time>
      </trkpt>
      <trkpt lat="43.58546" lon="5.65246">
        <ele>417.60000610352</ele>
        <time>2012-12-29T11:40:56.000Z</time>
      </trkpt>
      <trkpt lat="43.58568" lon="5.65309">
        <ele>416.60000610352</ele>
        <time>2012-12-29T11:41:06.000Z</time>
      </trkpt>
      <trkpt lat="43.58591" lon="5.65352">
        <ele>415.20001220703</ele>
        <time>2012-12-29T11:41:26.000Z</time>
      </trkpt>
      <trkpt lat="43.58621" lon="5.65404">
        <ele>415</ele>
        <time>2012-12-29T11:42:01.000Z</time>
      </trkpt>
      <trkpt lat="43.5863" lon="5.65467">
        <ele>416.39999389648</ele>
        <time>2012-12-29T11:42:14.000Z</time>
      </trkpt>
      <trkpt lat="43.58645" lon="5.65531">
        <ele>415.60000610352</ele>
        <time>2012-12-29T11:42:26.000Z</time>
      </trkpt>
      <trkpt lat="43.58661" lon="5.65598">
        <ele>411.20001220703</ele>
        <time>2012-12-29T11:42:34.000Z</time>
      </trkpt>
      <trkpt lat="43.58667" lon="5.6566">
        <ele>405.39999389648</ele>
        <time>2012-12-29T11:42:42.000Z</time>
      </trkpt>
      <trkpt lat="43.5864" lon="5.65711">
        <ele>404.60000610352</ele>
        <time>2012-12-29T11:42:49.000Z</time>
      </trkpt>
      <trkpt lat="43.58645" lon="5.65778">
        <ele>400.20001220703</ele>
        <time>2012-12-29T11:42:56.000Z</time>
      </trkpt>
      <trkpt lat="43.58675" lon="5.65827">
        <ele>398.20001220703</ele>
        <time>2012-12-29T11:43:05.000Z</time>
      </trkpt>
      <trkpt lat="43.58717" lon="5.65849">
        <ele>395.60000610352</ele>
        <time>2012-12-29T11:43:17.000Z</time>
      </trkpt>
      <trkpt lat="43.58763" lon="5.65855">
        <ele>393.39999389648</ele>
        <time>2012-12-29T11:43:29.000Z</time>
      </trkpt>
      <trkpt lat="43.58813" lon="5.65872">
        <ele>391.20001220703</ele>
        <time>2012-12-29T11:43:38.000Z</time>
      </trkpt>
      <trkpt lat="43.58862" lon="5.65866">
        <ele>389.79998779297</ele>
        <time>2012-12-29T11:43:45.000Z</time>
      </trkpt>
      <trkpt lat="43.58906" lon="5.65891">
        <ele>386.60000610352</ele>
        <time>2012-12-29T11:43:51.000Z</time>
      </trkpt>
      <trkpt lat="43.58952" lon="5.65933">
        <ele>382.20001220703</ele>
        <time>2012-12-29T11:43:57.000Z</time>
      </trkpt>
      <trkpt lat="43.58996" lon="5.65963">
        <ele>380</ele>
        <time>2012-12-29T11:44:02.000Z</time>
      </trkpt>
      <trkpt lat="43.59041" lon="5.65978">
        <ele>379.60000610352</ele>
        <time>2012-12-29T11:44:07.000Z</time>
      </trkpt>
      <trkpt lat="43.59085" lon="5.65947">
        <ele>379.60000610352</ele>
        <time>2012-12-29T11:44:13.000Z</time>
      </trkpt>
      <trkpt lat="43.59128" lon="5.65964">
        <ele>378.60000610352</ele>
        <time>2012-12-29T11:44:19.000Z</time>
      </trkpt>
      <trkpt lat="43.59177" lon="5.65963">
        <ele>377.79998779297</ele>
        <time>2012-12-29T11:44:25.000Z</time>
      </trkpt>
      <trkpt lat="43.59226" lon="5.65955">
        <ele>377.20001220703</ele>
        <time>2012-12-29T11:44:32.000Z</time>
      </trkpt>
      <trkpt lat="43.59278" lon="5.65965">
        <ele>375.79998779297</ele>
        <time>2012-12-29T11:44:40.000Z</time>
      </trkpt>
      <trkpt lat="43.59324" lon="5.65973">
        <ele>375.20001220703</ele>
        <time>2012-12-29T11:44:46.000Z</time>
      </trkpt>
      <trkpt lat="43.5937" lon="5.65982">
        <ele>373.39999389648</ele>
        <time>2012-12-29T11:44:52.000Z</time>
      </trkpt>
      <trkpt lat="43.59416" lon="5.65994">
        <ele>371</ele>
        <time>2012-12-29T11:44:58.000Z</time>
      </trkpt>
      <trkpt lat="43.59466" lon="5.66009">
        <ele>369.79998779297</ele>
        <time>2012-12-29T11:45:04.000Z</time>
      </trkpt>
      <trkpt lat="43.59517" lon="5.66029">
        <ele>368</ele>
        <time>2012-12-29T11:45:10.000Z</time>
      </trkpt>
      <trkpt lat="43.59567" lon="5.6604">
        <ele>366.60000610352</ele>
        <time>2012-12-29T11:45:16.000Z</time>
      </trkpt>
      <trkpt lat="43.59609" lon="5.66074">
        <ele>364.20001220703</ele>
        <time>2012-12-29T11:45:21.000Z</time>
      </trkpt>
      <trkpt lat="43.59662" lon="5.66084">
        <ele>362.79998779297</ele>
        <time>2012-12-29T11:45:26.000Z</time>
      </trkpt>
      <trkpt lat="43.59716" lon="5.66083">
        <ele>361.79998779297</ele>
        <time>2012-12-29T11:45:31.000Z</time>
      </trkpt>
      <trkpt lat="43.5977" lon="5.66084">
        <ele>360.60000610352</ele>
        <time>2012-12-29T11:45:36.000Z</time>
      </trkpt>
      <trkpt lat="43.59816" lon="5.66083">
        <ele>360</ele>
        <time>2012-12-29T11:45:40.000Z</time>
      </trkpt>
      <trkpt lat="43.59861" lon="5.66084">
        <ele>358.60000610352</ele>
        <time>2012-12-29T11:45:44.000Z</time>
      </trkpt>
      <trkpt lat="43.59905" lon="5.661">
        <ele>356.60000610352</ele>
        <time>2012-12-29T11:45:48.000Z</time>
      </trkpt>
      <trkpt lat="43.59957" lon="5.66116">
        <ele>353</ele>
        <time>2012-12-29T11:45:53.000Z</time>
      </trkpt>
      <trkpt lat="43.60009" lon="5.66127">
        <ele>349.39999389648</ele>
        <time>2012-12-29T11:45:58.000Z</time>
      </trkpt>
      <trkpt lat="43.6006" lon="5.66134">
        <ele>347</ele>
        <time>2012-12-29T11:46:03.000Z</time>
      </trkpt>
      <trkpt lat="43.60108" lon="5.66143">
        <ele>345.20001220703</ele>
        <time>2012-12-29T11:46:09.000Z</time>
      </trkpt>
      <trkpt lat="43.60148" lon="5.66111">
        <ele>343.79998779297</ele>
        <time>2012-12-29T11:46:15.000Z</time>
      </trkpt>
      <trkpt lat="43.60176" lon="5.66058">
        <ele>344</ele>
        <time>2012-12-29T11:46:20.000Z</time>
      </trkpt>
      <trkpt lat="43.60217" lon="5.66024">
        <ele>343.60000610352</ele>
        <time>2012-12-29T11:46:27.000Z</time>
      </trkpt>
      <trkpt lat="43.60266" lon="5.6601">
        <ele>341.60000610352</ele>
        <time>2012-12-29T11:46:34.000Z</time>
      </trkpt>
      <trkpt lat="43.60304" lon="5.65969">
        <ele>341.79998779297</ele>
        <time>2012-12-29T11:46:39.000Z</time>
      </trkpt>
      <trkpt lat="43.60335" lon="5.6592">
        <ele>340.79998779297</ele>
        <time>2012-12-29T11:46:44.000Z</time>
      </trkpt>
      <trkpt lat="43.60374" lon="5.65894">
        <ele>340.20001220703</ele>
        <time>2012-12-29T11:46:49.000Z</time>
      </trkpt>
      <trkpt lat="43.60426" lon="5.65898">
        <ele>339</ele>
        <time>2012-12-29T11:46:55.000Z</time>
      </trkpt>
      <trkpt lat="43.60476" lon="5.65918">
        <ele>338.20001220703</ele>
        <time>2012-12-29T11:47:01.000Z</time>
      </trkpt>
      <trkpt lat="43.60522" lon="5.65924">
        <ele>337.39999389648</ele>
        <time>2012-12-29T11:47:06.000Z</time>
      </trkpt>
      <trkpt lat="43.6057" lon="5.65931">
        <ele>336.79998779297</ele>
        <time>2012-12-29T11:47:12.000Z</time>
      </trkpt>
      <trkpt lat="43.60589" lon="5.65983">
        <ele>335.79998779297</ele>
        <time>2012-12-29T11:49:48.000Z</time>
      </trkpt>
      <trkpt lat="43.60616" lon="5.66037">
        <ele>333.39999389648</ele>
        <time>2012-12-29T11:49:58.000Z</time>
      </trkpt>
      <trkpt lat="43.60664" lon="5.66024">
        <ele>332.60000610352</ele>
        <time>2012-12-29T11:50:08.000Z</time>
      </trkpt>
      <trkpt lat="43.60705" lon="5.6601">
        <ele>330.39999389648</ele>
        <time>2012-12-29T11:50:16.000Z</time>
      </trkpt>
      <trkpt lat="43.6074" lon="5.66">
        <ele>328.60000610352</ele>
        <time>2012-12-29T11:50:26.000Z</time>
      </trkpt>
      <trkpt lat="43.60766" lon="5.66053">
        <ele>325.60000610352</ele>
        <time>2012-12-29T11:50:35.000Z</time>
      </trkpt>
      <trkpt lat="43.60809" lon="5.66086">
        <ele>322</ele>
        <time>2012-12-29T11:50:44.000Z</time>
      </trkpt>
      <trkpt lat="43.6085" lon="5.6606">
        <ele>321.39999389648</ele>
        <time>2012-12-29T11:50:51.000Z</time>
      </trkpt>
      <trkpt lat="43.60894" lon="5.66028">
        <ele>320.39999389648</ele>
        <time>2012-12-29T11:50:58.000Z</time>
      </trkpt>
      <trkpt lat="43.60936" lon="5.66002">
        <ele>319.79998779297</ele>
        <time>2012-12-29T11:51:05.000Z</time>
      </trkpt>
      <trkpt lat="43.60985" lon="5.6599">
        <ele>318.60000610352</ele>
        <time>2012-12-29T11:51:14.000Z</time>
      </trkpt>
      <trkpt lat="43.61033" lon="5.65991">
        <ele>316.39999389648</ele>
        <time>2012-12-29T11:51:22.000Z</time>
      </trkpt>
      <trkpt lat="43.6108" lon="5.65995">
        <ele>313.79998779297</ele>
        <time>2012-12-29T11:51:30.000Z</time>
      </trkpt>
      <trkpt lat="43.61128" lon="5.65987">
        <ele>314.20001220703</ele>
        <time>2012-12-29T11:51:39.000Z</time>
      </trkpt>
      <trkpt lat="43.61174" lon="5.65965">
        <ele>315.79998779297</ele>
        <time>2012-12-29T11:51:49.000Z</time>
      </trkpt>
      <trkpt lat="43.61219" lon="5.65945">
        <ele>318</ele>
        <time>2012-12-29T11:51:59.000Z</time>
      </trkpt>
      <trkpt lat="43.61266" lon="5.65923">
        <ele>320</ele>
        <time>2012-12-29T11:52:10.000Z</time>
      </trkpt>
      <trkpt lat="43.61307" lon="5.6589">
        <ele>320.79998779297</ele>
        <time>2012-12-29T11:52:24.000Z</time>
      </trkpt>
      <trkpt lat="43.61348" lon="5.6585">
        <ele>320.79998779297</ele>
        <time>2012-12-29T11:52:40.000Z</time>
      </trkpt>
      <trkpt lat="43.61392" lon="5.65815">
        <ele>319.79998779297</ele>
        <time>2012-12-29T11:52:49.000Z</time>
      </trkpt>
      <trkpt lat="43.61442" lon="5.65813">
        <ele>320.20001220703</ele>
        <time>2012-12-29T11:52:57.000Z</time>
      </trkpt>
      <trkpt lat="43.6149" lon="5.65826">
        <ele>321.20001220703</ele>
        <time>2012-12-29T11:53:04.000Z</time>
      </trkpt>
      <trkpt lat="43.6154" lon="5.65824">
        <ele>321.20001220703</ele>
        <time>2012-12-29T11:53:11.000Z</time>
      </trkpt>
      <trkpt lat="43.61583" lon="5.65807">
        <ele>323</ele>
        <time>2012-12-29T11:53:17.000Z</time>
      </trkpt>
      <trkpt lat="43.61634" lon="5.65788">
        <ele>323.60000610352</ele>
        <time>2012-12-29T11:53:24.000Z</time>
      </trkpt>
      <trkpt lat="43.61678" lon="5.6577">
        <ele>322.79998779297</ele>
        <time>2012-12-29T11:53:30.000Z</time>
      </trkpt>
      <trkpt lat="43.61722" lon="5.65752">
        <ele>321.39999389648</ele>
        <time>2012-12-29T11:53:36.000Z</time>
      </trkpt>
      <trkpt lat="43.61767" lon="5.65723">
        <ele>319.20001220703</ele>
        <time>2012-12-29T11:53:43.000Z</time>
      </trkpt>
      <trkpt lat="43.618" lon="5.65679">
        <ele>317.39999389648</ele>
        <time>2012-12-29T11:53:50.000Z</time>
      </trkpt>
      <trkpt lat="43.61832" lon="5.65626">
        <ele>315</ele>
        <time>2012-12-29T11:53:58.000Z</time>
      </trkpt>
      <trkpt lat="43.6186" lon="5.65574">
        <ele>312.39999389648</ele>
        <time>2012-12-29T11:54:05.000Z</time>
      </trkpt>
      <trkpt lat="43.61878" lon="5.6551">
        <ele>310.60000610352</ele>
        <time>2012-12-29T11:54:12.000Z</time>
      </trkpt>
      <trkpt lat="43.61896" lon="5.65442">
        <ele>311.60000610352</ele>
        <time>2012-12-29T11:54:19.000Z</time>
      </trkpt>
      <trkpt lat="43.61921" lon="5.65381">
        <ele>311.20001220703</ele>
        <time>2012-12-29T11:54:26.000Z</time>
      </trkpt>
      <trkpt lat="43.61949" lon="5.65325">
        <ele>310.60000610352</ele>
        <time>2012-12-29T11:54:32.000Z</time>
      </trkpt>
      <trkpt lat="43.61982" lon="5.6527">
        <ele>308.39999389648</ele>
        <time>2012-12-29T11:54:38.000Z</time>
      </trkpt>
      <trkpt lat="43.62016" lon="5.65213">
        <ele>308.60000610352</ele>
        <time>2012-12-29T11:54:44.000Z</time>
      </trkpt>
      <trkpt lat="43.62048" lon="5.6516">
        <ele>310.20001220703</ele>
        <time>2012-12-29T11:54:50.000Z</time>
      </trkpt>
      <trkpt lat="43.6208" lon="5.65106">
        <ele>311.39999389648</ele>
        <time>2012-12-29T11:54:56.000Z</time>
      </trkpt>
      <trkpt lat="43.62102" lon="5.65047">
        <ele>313.79998779297</ele>
        <time>2012-12-29T11:55:02.000Z</time>
      </trkpt>
      <trkpt lat="43.62124" lon="5.64982">
        <ele>313.60000610352</ele>
        <time>2012-12-29T11:55:09.000Z</time>
      </trkpt>
      <trkpt lat="43.62154" lon="5.6493">
        <ele>308.79998779297</ele>
        <time>2012-12-29T11:55:15.000Z</time>
      </trkpt>
      <trkpt lat="43.6219" lon="5.64883">
        <ele>306</ele>
        <time>2012-12-29T11:55:21.000Z</time>
      </trkpt>
      <trkpt lat="43.62227" lon="5.64833">
        <ele>303.79998779297</ele>
        <time>2012-12-29T11:55:27.000Z</time>
      </trkpt>
      <trkpt lat="43.62264" lon="5.64788">
        <ele>302.20001220703</ele>
        <time>2012-12-29T11:55:33.000Z</time>
      </trkpt>
      <trkpt lat="43.62306" lon="5.64757">
        <ele>302.79998779297</ele>
        <time>2012-12-29T11:55:39.000Z</time>
      </trkpt>
      <trkpt lat="43.62347" lon="5.64732">
        <ele>302.79998779297</ele>
        <time>2012-12-29T11:55:45.000Z</time>
      </trkpt>
      <trkpt lat="43.62395" lon="5.64703">
        <ele>301</ele>
        <time>2012-12-29T11:55:52.000Z</time>
      </trkpt>
      <trkpt lat="43.62437" lon="5.64678">
        <ele>299.60000610352</ele>
        <time>2012-12-29T11:55:58.000Z</time>
      </trkpt>
      <trkpt lat="43.62487" lon="5.64663">
        <ele>301.79998779297</ele>
        <time>2012-12-29T11:56:05.000Z</time>
      </trkpt>
      <trkpt lat="43.62536" lon="5.64663">
        <ele>305.39999389648</ele>
        <time>2012-12-29T11:56:12.000Z</time>
      </trkpt>
      <trkpt lat="43.62585" lon="5.64665">
        <ele>308.79998779297</ele>
        <time>2012-12-29T11:56:23.000Z</time>
      </trkpt>
      <trkpt lat="43.62627" lon="5.64691">
        <ele>308.79998779297</ele>
        <time>2012-12-29T11:56:33.000Z</time>
      </trkpt>
      <trkpt lat="43.62656" lon="5.64744">
        <ele>306</ele>
        <time>2012-12-29T11:56:41.000Z</time>
      </trkpt>
      <trkpt lat="43.62672" lon="5.64803">
        <ele>306.20001220703</ele>
        <time>2012-12-29T11:56:47.000Z</time>
      </trkpt>
      <trkpt lat="43.62707" lon="5.64829">
        <ele>307.60000610352</ele>
        <time>2012-12-29T11:56:53.000Z</time>
      </trkpt>
      <trkpt lat="43.6274" lon="5.64774">
        <ele>304.79998779297</ele>
        <time>2012-12-29T11:56:59.000Z</time>
      </trkpt>
      <trkpt lat="43.62772" lon="5.64711">
        <ele>302.60000610352</ele>
        <time>2012-12-29T11:57:05.000Z</time>
      </trkpt>
      <trkpt lat="43.62798" lon="5.64657">
        <ele>300.60000610352</ele>
        <time>2012-12-29T11:57:10.000Z</time>
      </trkpt>
      <trkpt lat="43.62825" lon="5.64599">
        <ele>294.39999389648</ele>
        <time>2012-12-29T11:57:15.000Z</time>
      </trkpt>
      <trkpt lat="43.62857" lon="5.64539">
        <ele>289.60000610352</ele>
        <time>2012-12-29T11:57:20.000Z</time>
      </trkpt>
      <trkpt lat="43.62895" lon="5.64502">
        <ele>284.60000610352</ele>
        <time>2012-12-29T11:57:24.000Z</time>
      </trkpt>
      <trkpt lat="43.6294" lon="5.64483">
        <ele>281.60000610352</ele>
        <time>2012-12-29T11:57:28.000Z</time>
      </trkpt>
      <trkpt lat="43.62989" lon="5.64479">
        <ele>279.39999389648</ele>
        <time>2012-12-29T11:57:32.000Z</time>
      </trkpt>
      <trkpt lat="43.63036" lon="5.64475">
        <ele>275.60000610352</ele>
        <time>2012-12-29T11:57:36.000Z</time>
      </trkpt>
      <trkpt lat="43.63091" lon="5.64466">
        <ele>270.79998779297</ele>
        <time>2012-12-29T11:57:41.000Z</time>
      </trkpt>
      <trkpt lat="43.63144" lon="5.64452">
        <ele>268.20001220703</ele>
        <time>2012-12-29T11:57:46.000Z</time>
      </trkpt>
      <trkpt lat="43.63191" lon="5.64425">
        <ele>267</ele>
        <time>2012-12-29T11:57:51.000Z</time>
      </trkpt>
      <trkpt lat="43.63236" lon="5.64392">
        <ele>266.60000610352</ele>
        <time>2012-12-29T11:57:57.000Z</time>
      </trkpt>
      <trkpt lat="43.6328" lon="5.64368">
        <ele>267.60000610352</ele>
        <time>2012-12-29T11:58:05.000Z</time>
      </trkpt>
      <trkpt lat="43.63302" lon="5.6431">
        <ele>266.79998779297</ele>
        <time>2012-12-29T11:58:13.000Z</time>
      </trkpt>
      <trkpt lat="43.63334" lon="5.64256">
        <ele>265.20001220703</ele>
        <time>2012-12-29T11:58:21.000Z</time>
      </trkpt>
      <trkpt lat="43.63374" lon="5.64214">
        <ele>267.60000610352</ele>
        <time>2012-12-29T11:58:30.000Z</time>
      </trkpt>
      <trkpt lat="43.63419" lon="5.64184">
        <ele>266.60000610352</ele>
        <time>2012-12-29T11:58:38.000Z</time>
      </trkpt>
      <trkpt lat="43.63465" lon="5.64157">
        <ele>266.79998779297</ele>
        <time>2012-12-29T11:58:46.000Z</time>
      </trkpt>
      <trkpt lat="43.63504" lon="5.64119">
        <ele>267.60000610352</ele>
        <time>2012-12-29T11:58:54.000Z</time>
      </trkpt>
      <trkpt lat="43.63534" lon="5.64069">
        <ele>267.60000610352</ele>
        <time>2012-12-29T11:59:02.000Z</time>
      </trkpt>
      <trkpt lat="43.63554" lon="5.64009">
        <ele>267.39999389648</ele>
        <time>2012-12-29T11:59:11.000Z</time>
      </trkpt>
      <trkpt lat="43.63577" lon="5.63962">
        <ele>266.20001220703</ele>
        <time>2012-12-29T11:59:24.000Z</time>
      </trkpt>
      <trkpt lat="43.6358" lon="5.63898">
        <ele>266.20001220703</ele>
        <time>2012-12-29T11:59:35.000Z</time>
      </trkpt>
      <trkpt lat="43.63583" lon="5.63832">
        <ele>265.79998779297</ele>
        <time>2012-12-29T11:59:46.000Z</time>
      </trkpt>
      <trkpt lat="43.63586" lon="5.63765">
        <ele>263.60000610352</ele>
        <time>2012-12-29T11:59:57.000Z</time>
      </trkpt>
      <trkpt lat="43.63624" lon="5.63746">
        <ele>265</ele>
        <time>2012-12-29T12:00:18.000Z</time>
      </trkpt>
      <trkpt lat="43.63667" lon="5.63757">
        <ele>266.79998779297</ele>
        <time>2012-12-29T12:00:33.000Z</time>
      </trkpt>
    </trkseg>
  </trk>
</gpx>